<?xml version="1.0" encoding="UTF-8" standalone="no" ?>
<gpx xmlns="http://www.topografix.com/GPX/1/1" xmlns:xsi="http://www.w3.org/2001/XMLSchema-instance" xsi:schemaLocation="http://www.topografix.com/GPX/1/1 http://www.topografix.com/GPX/1/1/gpx.xsd" version="1.1" creator="VisuGPX - https://www.visugpx.com">
  <metadata>
    <name>2022-03-17-46- savanac</name>
    <desc><![CDATA[Randonnée de 9 km pour 250m de dénivelé positif ; circuit en sous bois un montée régulière nous amène sur lez plateau où quelques gariottes nous attendent ]]></desc>
  </metadata>
  <trk>
    <name><![CDATA[2022-03-17 16:50:24]]></name>
    <trkseg>
      <trkpt lat="44.46809" lon="1.52602">
        <ele>120.78</ele>
        <time>2022-03-17T13:01:34Z</time>
      </trkpt>
      <trkpt lat="44.46823" lon="1.52597">
        <ele>121.26</ele>
        <time>2022-03-17T13:01:57Z</time>
      </trkpt>
      <trkpt lat="44.46832" lon="1.52594">
        <ele>123.19</ele>
        <time>2022-03-17T13:02:12Z</time>
      </trkpt>
      <trkpt lat="44.46865" lon="1.52591">
        <ele>127.99</ele>
        <time>2022-03-17T13:04:13Z</time>
      </trkpt>
      <trkpt lat="44.4686" lon="1.52607">
        <ele>129.92</ele>
        <time>2022-03-17T13:04:24Z</time>
      </trkpt>
      <trkpt lat="44.46855" lon="1.5262">
        <ele>131.36</ele>
        <time>2022-03-17T13:04:35Z</time>
      </trkpt>
      <trkpt lat="44.4685" lon="1.52632">
        <ele>133.28</ele>
        <time>2022-03-17T13:04:45Z</time>
      </trkpt>
      <trkpt lat="44.46844" lon="1.52643">
        <ele>134.24</ele>
        <time>2022-03-17T13:04:54Z</time>
      </trkpt>
      <trkpt lat="44.46837" lon="1.52654">
        <ele>136.16</ele>
        <time>2022-03-17T13:05:05Z</time>
      </trkpt>
      <trkpt lat="44.46827" lon="1.52666">
        <ele>137.13</ele>
        <time>2022-03-17T13:06:04Z</time>
      </trkpt>
      <trkpt lat="44.46819" lon="1.52675">
        <ele>138.57</ele>
        <time>2022-03-17T13:06:13Z</time>
      </trkpt>
      <trkpt lat="44.46815" lon="1.52686">
        <ele>140.01</ele>
        <time>2022-03-17T13:06:21Z</time>
      </trkpt>
      <trkpt lat="44.46817" lon="1.52698">
        <ele>140.97</ele>
        <time>2022-03-17T13:06:33Z</time>
      </trkpt>
      <trkpt lat="44.46827" lon="1.52707">
        <ele>144.34</ele>
        <time>2022-03-17T13:06:46Z</time>
      </trkpt>
      <trkpt lat="44.46836" lon="1.52715">
        <ele>145.78</ele>
        <time>2022-03-17T13:06:57Z</time>
      </trkpt>
      <trkpt lat="44.46845" lon="1.52717">
        <ele>148.66</ele>
        <time>2022-03-17T13:07:10Z</time>
      </trkpt>
      <trkpt lat="44.46854" lon="1.52724">
        <ele>151.06</ele>
        <time>2022-03-17T13:07:22Z</time>
      </trkpt>
      <trkpt lat="44.46864" lon="1.5273">
        <ele>152.51</ele>
        <time>2022-03-17T13:07:34Z</time>
      </trkpt>
      <trkpt lat="44.46875" lon="1.52724">
        <ele>153.47</ele>
        <time>2022-03-17T13:07:44Z</time>
      </trkpt>
      <trkpt lat="44.46886" lon="1.52728">
        <ele>155.87</ele>
        <time>2022-03-17T13:07:57Z</time>
      </trkpt>
      <trkpt lat="44.46898" lon="1.52733">
        <ele>158.75</ele>
        <time>2022-03-17T13:08:12Z</time>
      </trkpt>
      <trkpt lat="44.46907" lon="1.52742">
        <ele>160.68</ele>
        <time>2022-03-17T13:08:26Z</time>
      </trkpt>
      <trkpt lat="44.46917" lon="1.52749">
        <ele>163.56</ele>
        <time>2022-03-17T13:08:41Z</time>
      </trkpt>
      <trkpt lat="44.46929" lon="1.52762">
        <ele>166.45</ele>
        <time>2022-03-17T13:09:34Z</time>
      </trkpt>
      <trkpt lat="44.46941" lon="1.52769">
        <ele>169.33</ele>
        <time>2022-03-17T13:09:50Z</time>
      </trkpt>
      <trkpt lat="44.46951" lon="1.52775">
        <ele>171.73</ele>
        <time>2022-03-17T13:10:04Z</time>
      </trkpt>
      <trkpt lat="44.4697" lon="1.52786">
        <ele>176.06</ele>
        <time>2022-03-17T13:10:29Z</time>
      </trkpt>
      <trkpt lat="44.46982" lon="1.52787">
        <ele>177.98</ele>
        <time>2022-03-17T13:10:45Z</time>
      </trkpt>
      <trkpt lat="44.46997" lon="1.52792">
        <ele>180.38</ele>
        <time>2022-03-17T13:11:06Z</time>
      </trkpt>
      <trkpt lat="44.47014" lon="1.52802">
        <ele>184.23</ele>
        <time>2022-03-17T13:11:37Z</time>
      </trkpt>
      <trkpt lat="44.47027" lon="1.52813">
        <ele>187.11</ele>
        <time>2022-03-17T13:11:58Z</time>
      </trkpt>
      <trkpt lat="44.47042" lon="1.52817">
        <ele>189.04</ele>
        <time>2022-03-17T13:12:25Z</time>
      </trkpt>
      <trkpt lat="44.47057" lon="1.52807">
        <ele>190.48</ele>
        <time>2022-03-17T13:12:43Z</time>
      </trkpt>
      <trkpt lat="44.47069" lon="1.52801">
        <ele>191.44</ele>
        <time>2022-03-17T13:12:55Z</time>
      </trkpt>
      <trkpt lat="44.47083" lon="1.52796">
        <ele>192.4</ele>
        <time>2022-03-17T13:13:09Z</time>
      </trkpt>
      <trkpt lat="44.47101" lon="1.52786">
        <ele>194.32</ele>
        <time>2022-03-17T13:16:47Z</time>
      </trkpt>
      <trkpt lat="44.47112" lon="1.52783">
        <ele>194.8</ele>
        <time>2022-03-17T13:17:01Z</time>
      </trkpt>
      <trkpt lat="44.47122" lon="1.52777">
        <ele>195.28</ele>
        <time>2022-03-17T13:17:14Z</time>
      </trkpt>
      <trkpt lat="44.47133" lon="1.52774">
        <ele>196.25</ele>
        <time>2022-03-17T13:17:25Z</time>
      </trkpt>
      <trkpt lat="44.47144" lon="1.52769">
        <ele>196.25</ele>
        <time>2022-03-17T13:17:36Z</time>
      </trkpt>
      <trkpt lat="44.47154" lon="1.52767">
        <ele>197.21</ele>
        <time>2022-03-17T13:17:46Z</time>
      </trkpt>
      <trkpt lat="44.47164" lon="1.52765">
        <ele>198.17</ele>
        <time>2022-03-17T13:17:56Z</time>
      </trkpt>
      <trkpt lat="44.47174" lon="1.52764">
        <ele>199.61</ele>
        <time>2022-03-17T13:18:08Z</time>
      </trkpt>
      <trkpt lat="44.47187" lon="1.52764">
        <ele>201.05</ele>
        <time>2022-03-17T13:18:22Z</time>
      </trkpt>
      <trkpt lat="44.47201" lon="1.52759">
        <ele>202.49</ele>
        <time>2022-03-17T13:18:36Z</time>
      </trkpt>
      <trkpt lat="44.47215" lon="1.52753">
        <ele>204.42</ele>
        <time>2022-03-17T13:18:56Z</time>
      </trkpt>
      <trkpt lat="44.47226" lon="1.52749">
        <ele>205.86</ele>
        <time>2022-03-17T13:19:12Z</time>
      </trkpt>
      <trkpt lat="44.47239" lon="1.52741">
        <ele>207.78</ele>
        <time>2022-03-17T13:19:28Z</time>
      </trkpt>
      <trkpt lat="44.47253" lon="1.52736">
        <ele>208.74</ele>
        <time>2022-03-17T13:19:42Z</time>
      </trkpt>
      <trkpt lat="44.47265" lon="1.52733">
        <ele>210.67</ele>
        <time>2022-03-17T13:19:58Z</time>
      </trkpt>
      <trkpt lat="44.47279" lon="1.5273">
        <ele>212.59</ele>
        <time>2022-03-17T13:20:14Z</time>
      </trkpt>
      <trkpt lat="44.47292" lon="1.52727">
        <ele>214.03</ele>
        <time>2022-03-17T13:20:29Z</time>
      </trkpt>
      <trkpt lat="44.47304" lon="1.52725">
        <ele>215.95</ele>
        <time>2022-03-17T13:20:45Z</time>
      </trkpt>
      <trkpt lat="44.47316" lon="1.52723">
        <ele>217.88</ele>
        <time>2022-03-17T13:21:00Z</time>
      </trkpt>
      <trkpt lat="44.4733" lon="1.52721">
        <ele>219.32</ele>
        <time>2022-03-17T13:21:15Z</time>
      </trkpt>
      <trkpt lat="44.47345" lon="1.52719">
        <ele>221.24</ele>
        <time>2022-03-17T13:21:34Z</time>
      </trkpt>
      <trkpt lat="44.47357" lon="1.5272">
        <ele>222.68</ele>
        <time>2022-03-17T13:21:50Z</time>
      </trkpt>
      <trkpt lat="44.47376" lon="1.52721">
        <ele>225.57</ele>
        <time>2022-03-17T13:22:11Z</time>
      </trkpt>
      <trkpt lat="44.47388" lon="1.5272">
        <ele>226.05</ele>
        <time>2022-03-17T13:22:26Z</time>
      </trkpt>
      <trkpt lat="44.47401" lon="1.52722">
        <ele>227.97</ele>
        <time>2022-03-17T13:22:44Z</time>
      </trkpt>
      <trkpt lat="44.47419" lon="1.52723">
        <ele>230.37</ele>
        <time>2022-03-17T13:23:06Z</time>
      </trkpt>
      <trkpt lat="44.47439" lon="1.52725">
        <ele>232.3</ele>
        <time>2022-03-17T13:23:29Z</time>
      </trkpt>
      <trkpt lat="44.47454" lon="1.52717">
        <ele>232.78</ele>
        <time>2022-03-17T13:23:45Z</time>
      </trkpt>
      <trkpt lat="44.47467" lon="1.52715">
        <ele>234.22</ele>
        <time>2022-03-17T13:23:58Z</time>
      </trkpt>
      <trkpt lat="44.47478" lon="1.52719">
        <ele>235.18</ele>
        <time>2022-03-17T13:24:11Z</time>
      </trkpt>
      <trkpt lat="44.47491" lon="1.52725">
        <ele>236.14</ele>
        <time>2022-03-17T13:24:26Z</time>
      </trkpt>
      <trkpt lat="44.47506" lon="1.52731">
        <ele>237.1</ele>
        <time>2022-03-17T13:24:40Z</time>
      </trkpt>
      <trkpt lat="44.47516" lon="1.52735">
        <ele>238.54</ele>
        <time>2022-03-17T13:24:53Z</time>
      </trkpt>
      <trkpt lat="44.47528" lon="1.52737">
        <ele>239.02</ele>
        <time>2022-03-17T13:25:04Z</time>
      </trkpt>
      <trkpt lat="44.47539" lon="1.52734">
        <ele>239.99</ele>
        <time>2022-03-17T13:25:14Z</time>
      </trkpt>
      <trkpt lat="44.47549" lon="1.5273">
        <ele>240.95</ele>
        <time>2022-03-17T13:25:25Z</time>
      </trkpt>
      <trkpt lat="44.47559" lon="1.52733">
        <ele>242.39</ele>
        <time>2022-03-17T13:25:37Z</time>
      </trkpt>
      <trkpt lat="44.4757" lon="1.52742">
        <ele>243.35</ele>
        <time>2022-03-17T13:25:51Z</time>
      </trkpt>
      <trkpt lat="44.47582" lon="1.52747">
        <ele>244.79</ele>
        <time>2022-03-17T13:26:06Z</time>
      </trkpt>
      <trkpt lat="44.47594" lon="1.52751">
        <ele>245.75</ele>
        <time>2022-03-17T13:26:21Z</time>
      </trkpt>
      <trkpt lat="44.47609" lon="1.52757">
        <ele>247.2</ele>
        <time>2022-03-17T13:26:34Z</time>
      </trkpt>
      <trkpt lat="44.4762" lon="1.52763">
        <ele>248.16</ele>
        <time>2022-03-17T13:26:47Z</time>
      </trkpt>
      <trkpt lat="44.47634" lon="1.5277">
        <ele>249.12</ele>
        <time>2022-03-17T13:27:01Z</time>
      </trkpt>
      <trkpt lat="44.47647" lon="1.52777">
        <ele>249.6</ele>
        <time>2022-03-17T13:27:14Z</time>
      </trkpt>
      <trkpt lat="44.47657" lon="1.52782">
        <ele>250.56</ele>
        <time>2022-03-17T13:27:27Z</time>
      </trkpt>
      <trkpt lat="44.47668" lon="1.52787">
        <ele>251.04</ele>
        <time>2022-03-17T13:27:39Z</time>
      </trkpt>
      <trkpt lat="44.4768" lon="1.52792">
        <ele>252</ele>
        <time>2022-03-17T13:27:51Z</time>
      </trkpt>
      <trkpt lat="44.47692" lon="1.52799">
        <ele>252.48</ele>
        <time>2022-03-17T13:28:06Z</time>
      </trkpt>
      <trkpt lat="44.47711" lon="1.52805">
        <ele>253.44</ele>
        <time>2022-03-17T13:28:22Z</time>
      </trkpt>
      <trkpt lat="44.47725" lon="1.52805">
        <ele>254.41</ele>
        <time>2022-03-17T13:28:36Z</time>
      </trkpt>
      <trkpt lat="44.47733" lon="1.52818">
        <ele>255.37</ele>
        <time>2022-03-17T13:28:49Z</time>
      </trkpt>
      <trkpt lat="44.4774" lon="1.5283">
        <ele>255.37</ele>
        <time>2022-03-17T13:29:02Z</time>
      </trkpt>
      <trkpt lat="44.4775" lon="1.52836">
        <ele>255.37</ele>
        <time>2022-03-17T13:29:14Z</time>
      </trkpt>
      <trkpt lat="44.47769" lon="1.52844">
        <ele>256.33</ele>
        <time>2022-03-17T13:29:34Z</time>
      </trkpt>
      <trkpt lat="44.47783" lon="1.52854">
        <ele>257.77</ele>
        <time>2022-03-17T13:29:50Z</time>
      </trkpt>
      <trkpt lat="44.47794" lon="1.52865">
        <ele>258.25</ele>
        <time>2022-03-17T13:30:05Z</time>
      </trkpt>
      <trkpt lat="44.478" lon="1.52882">
        <ele>259.21</ele>
        <time>2022-03-17T13:30:20Z</time>
      </trkpt>
      <trkpt lat="44.47801" lon="1.529">
        <ele>259.69</ele>
        <time>2022-03-17T13:30:32Z</time>
      </trkpt>
      <trkpt lat="44.47799" lon="1.52918">
        <ele>260.17</ele>
        <time>2022-03-17T13:30:42Z</time>
      </trkpt>
      <trkpt lat="44.47798" lon="1.52937">
        <ele>260.65</ele>
        <time>2022-03-17T13:31:13Z</time>
      </trkpt>
      <trkpt lat="44.47797" lon="1.52956">
        <ele>261.14</ele>
        <time>2022-03-17T13:31:24Z</time>
      </trkpt>
      <trkpt lat="44.47797" lon="1.52972">
        <ele>262.58</ele>
        <time>2022-03-17T13:31:34Z</time>
      </trkpt>
      <trkpt lat="44.478" lon="1.52988">
        <ele>263.06</ele>
        <time>2022-03-17T13:31:46Z</time>
      </trkpt>
      <trkpt lat="44.47802" lon="1.53007">
        <ele>264.98</ele>
        <time>2022-03-17T13:31:58Z</time>
      </trkpt>
      <trkpt lat="44.47801" lon="1.53024">
        <ele>265.94</ele>
        <time>2022-03-17T13:32:08Z</time>
      </trkpt>
      <trkpt lat="44.478" lon="1.53038">
        <ele>266.42</ele>
        <time>2022-03-17T13:32:17Z</time>
      </trkpt>
      <trkpt lat="44.47798" lon="1.53052">
        <ele>265.94</ele>
        <time>2022-03-17T13:32:27Z</time>
      </trkpt>
      <trkpt lat="44.47799" lon="1.53069">
        <ele>265.94</ele>
        <time>2022-03-17T13:32:48Z</time>
      </trkpt>
      <trkpt lat="44.47804" lon="1.5308">
        <ele>265.94</ele>
        <time>2022-03-17T13:32:56Z</time>
      </trkpt>
      <trkpt lat="44.47813" lon="1.53088">
        <ele>267.38</ele>
        <time>2022-03-17T13:33:06Z</time>
      </trkpt>
      <trkpt lat="44.47822" lon="1.53094">
        <ele>268.35</ele>
        <time>2022-03-17T13:33:16Z</time>
      </trkpt>
      <trkpt lat="44.47832" lon="1.53101">
        <ele>268.83</ele>
        <time>2022-03-17T13:33:25Z</time>
      </trkpt>
      <trkpt lat="44.47841" lon="1.53115">
        <ele>269.31</ele>
        <time>2022-03-17T13:33:41Z</time>
      </trkpt>
      <trkpt lat="44.47849" lon="1.53127">
        <ele>269.31</ele>
        <time>2022-03-17T13:33:52Z</time>
      </trkpt>
      <trkpt lat="44.47858" lon="1.53135">
        <ele>269.31</ele>
        <time>2022-03-17T13:34:03Z</time>
      </trkpt>
      <trkpt lat="44.4787" lon="1.53138">
        <ele>269.79</ele>
        <time>2022-03-17T13:34:15Z</time>
      </trkpt>
      <trkpt lat="44.4788" lon="1.53145">
        <ele>268.35</ele>
        <time>2022-03-17T13:34:25Z</time>
      </trkpt>
      <trkpt lat="44.47887" lon="1.53163">
        <ele>266.9</ele>
        <time>2022-03-17T13:35:06Z</time>
      </trkpt>
      <trkpt lat="44.47886" lon="1.53173">
        <ele>266.42</ele>
        <time>2022-03-17T13:35:27Z</time>
      </trkpt>
      <trkpt lat="44.47886" lon="1.53189">
        <ele>265.94</ele>
        <time>2022-03-17T13:35:36Z</time>
      </trkpt>
      <trkpt lat="44.47889" lon="1.53204">
        <ele>265.94</ele>
        <time>2022-03-17T13:35:44Z</time>
      </trkpt>
      <trkpt lat="44.47895" lon="1.53218">
        <ele>265.94</ele>
        <time>2022-03-17T13:35:52Z</time>
      </trkpt>
      <trkpt lat="44.47899" lon="1.53232">
        <ele>265.94</ele>
        <time>2022-03-17T13:36:00Z</time>
      </trkpt>
      <trkpt lat="44.47904" lon="1.53246">
        <ele>265.94</ele>
        <time>2022-03-17T13:36:08Z</time>
      </trkpt>
      <trkpt lat="44.47908" lon="1.53259">
        <ele>267.38</ele>
        <time>2022-03-17T13:36:16Z</time>
      </trkpt>
      <trkpt lat="44.47912" lon="1.53275">
        <ele>268.35</ele>
        <time>2022-03-17T13:36:25Z</time>
      </trkpt>
      <trkpt lat="44.47914" lon="1.53292">
        <ele>268.83</ele>
        <time>2022-03-17T13:36:34Z</time>
      </trkpt>
      <trkpt lat="44.47913" lon="1.53307">
        <ele>269.79</ele>
        <time>2022-03-17T13:36:44Z</time>
      </trkpt>
      <trkpt lat="44.47912" lon="1.53326">
        <ele>270.27</ele>
        <time>2022-03-17T13:39:25Z</time>
      </trkpt>
      <trkpt lat="44.47905" lon="1.53336">
        <ele>270.75</ele>
        <time>2022-03-17T13:39:37Z</time>
      </trkpt>
      <trkpt lat="44.47898" lon="1.53348">
        <ele>270.75</ele>
        <time>2022-03-17T13:39:48Z</time>
      </trkpt>
      <trkpt lat="44.4789" lon="1.53357">
        <ele>270.75</ele>
        <time>2022-03-17T13:39:58Z</time>
      </trkpt>
      <trkpt lat="44.47883" lon="1.53369">
        <ele>269.31</ele>
        <time>2022-03-17T13:40:09Z</time>
      </trkpt>
      <trkpt lat="44.47878" lon="1.53383">
        <ele>269.31</ele>
        <time>2022-03-17T13:40:23Z</time>
      </trkpt>
      <trkpt lat="44.47872" lon="1.53396">
        <ele>268.83</ele>
        <time>2022-03-17T13:40:43Z</time>
      </trkpt>
      <trkpt lat="44.47873" lon="1.5341">
        <ele>268.35</ele>
        <time>2022-03-17T13:40:56Z</time>
      </trkpt>
      <trkpt lat="44.47881" lon="1.53418">
        <ele>268.35</ele>
        <time>2022-03-17T13:41:06Z</time>
      </trkpt>
      <trkpt lat="44.47892" lon="1.53427">
        <ele>268.35</ele>
        <time>2022-03-17T13:41:16Z</time>
      </trkpt>
      <trkpt lat="44.47899" lon="1.53436">
        <ele>269.79</ele>
        <time>2022-03-17T13:41:26Z</time>
      </trkpt>
      <trkpt lat="44.47908" lon="1.53444">
        <ele>269.79</ele>
        <time>2022-03-17T13:41:36Z</time>
      </trkpt>
      <trkpt lat="44.47917" lon="1.53453">
        <ele>269.79</ele>
        <time>2022-03-17T13:41:47Z</time>
      </trkpt>
      <trkpt lat="44.47928" lon="1.53463">
        <ele>270.27</ele>
        <time>2022-03-17T13:41:58Z</time>
      </trkpt>
      <trkpt lat="44.47939" lon="1.53473">
        <ele>270.27</ele>
        <time>2022-03-17T13:42:08Z</time>
      </trkpt>
      <trkpt lat="44.47948" lon="1.53481">
        <ele>270.27</ele>
        <time>2022-03-17T13:42:17Z</time>
      </trkpt>
      <trkpt lat="44.47958" lon="1.53491">
        <ele>270.27</ele>
        <time>2022-03-17T13:42:27Z</time>
      </trkpt>
      <trkpt lat="44.47966" lon="1.53499">
        <ele>269.31</ele>
        <time>2022-03-17T13:42:37Z</time>
      </trkpt>
      <trkpt lat="44.47976" lon="1.53508">
        <ele>267.86</ele>
        <time>2022-03-17T13:42:48Z</time>
      </trkpt>
      <trkpt lat="44.47986" lon="1.53518">
        <ele>267.86</ele>
        <time>2022-03-17T13:42:59Z</time>
      </trkpt>
      <trkpt lat="44.47993" lon="1.53529">
        <ele>267.38</ele>
        <time>2022-03-17T13:43:10Z</time>
      </trkpt>
      <trkpt lat="44.48" lon="1.53543">
        <ele>265.94</ele>
        <time>2022-03-17T13:43:21Z</time>
      </trkpt>
      <trkpt lat="44.48004" lon="1.5356">
        <ele>264.98</ele>
        <time>2022-03-17T13:43:33Z</time>
      </trkpt>
      <trkpt lat="44.48009" lon="1.53576">
        <ele>264.5</ele>
        <time>2022-03-17T13:43:46Z</time>
      </trkpt>
      <trkpt lat="44.48014" lon="1.53591">
        <ele>264.5</ele>
        <time>2022-03-17T13:43:57Z</time>
      </trkpt>
      <trkpt lat="44.48019" lon="1.53607">
        <ele>264.02</ele>
        <time>2022-03-17T13:44:08Z</time>
      </trkpt>
      <trkpt lat="44.48024" lon="1.53622">
        <ele>262.58</ele>
        <time>2022-03-17T13:44:21Z</time>
      </trkpt>
      <trkpt lat="44.4803" lon="1.5364">
        <ele>261.62</ele>
        <time>2022-03-17T13:44:35Z</time>
      </trkpt>
      <trkpt lat="44.48035" lon="1.53655">
        <ele>261.14</ele>
        <time>2022-03-17T13:44:45Z</time>
      </trkpt>
      <trkpt lat="44.48045" lon="1.53659">
        <ele>259.69</ele>
        <time>2022-03-17T13:45:01Z</time>
      </trkpt>
      <trkpt lat="44.48056" lon="1.53651">
        <ele>259.21</ele>
        <time>2022-03-17T13:45:15Z</time>
      </trkpt>
      <trkpt lat="44.48064" lon="1.53629">
        <ele>258.73</ele>
        <time>2022-03-17T13:45:45Z</time>
      </trkpt>
      <trkpt lat="44.48073" lon="1.53613">
        <ele>257.77</ele>
        <time>2022-03-17T13:46:01Z</time>
      </trkpt>
      <trkpt lat="44.48081" lon="1.53602">
        <ele>254.89</ele>
        <time>2022-03-17T13:46:12Z</time>
      </trkpt>
      <trkpt lat="44.4809" lon="1.53589">
        <ele>253.44</ele>
        <time>2022-03-17T13:46:25Z</time>
      </trkpt>
      <trkpt lat="44.48099" lon="1.53576">
        <ele>252.48</ele>
        <time>2022-03-17T13:46:37Z</time>
      </trkpt>
      <trkpt lat="44.4811" lon="1.53565">
        <ele>250.56</ele>
        <time>2022-03-17T13:46:49Z</time>
      </trkpt>
      <trkpt lat="44.48122" lon="1.53554">
        <ele>248.64</ele>
        <time>2022-03-17T13:47:01Z</time>
      </trkpt>
      <trkpt lat="44.48135" lon="1.5354">
        <ele>247.2</ele>
        <time>2022-03-17T13:47:16Z</time>
      </trkpt>
      <trkpt lat="44.48149" lon="1.53527">
        <ele>246.72</ele>
        <time>2022-03-17T13:47:29Z</time>
      </trkpt>
      <trkpt lat="44.48162" lon="1.53519">
        <ele>246.23</ele>
        <time>2022-03-17T13:47:43Z</time>
      </trkpt>
      <trkpt lat="44.48175" lon="1.5351">
        <ele>246.23</ele>
        <time>2022-03-17T13:47:55Z</time>
      </trkpt>
      <trkpt lat="44.48181" lon="1.53494">
        <ele>245.27</ele>
        <time>2022-03-17T13:48:07Z</time>
      </trkpt>
      <trkpt lat="44.48189" lon="1.53472">
        <ele>244.31</ele>
        <time>2022-03-17T13:48:30Z</time>
      </trkpt>
      <trkpt lat="44.48194" lon="1.53456">
        <ele>243.83</ele>
        <time>2022-03-17T13:48:40Z</time>
      </trkpt>
      <trkpt lat="44.48203" lon="1.53448">
        <ele>244.79</ele>
        <time>2022-03-17T13:48:52Z</time>
      </trkpt>
      <trkpt lat="44.48211" lon="1.53437">
        <ele>244.79</ele>
        <time>2022-03-17T13:49:04Z</time>
      </trkpt>
      <trkpt lat="44.48225" lon="1.53428">
        <ele>246.72</ele>
        <time>2022-03-17T13:49:28Z</time>
      </trkpt>
      <trkpt lat="44.48234" lon="1.53417">
        <ele>246.23</ele>
        <time>2022-03-17T13:49:41Z</time>
      </trkpt>
      <trkpt lat="44.48246" lon="1.53406">
        <ele>246.72</ele>
        <time>2022-03-17T13:49:56Z</time>
      </trkpt>
      <trkpt lat="44.48256" lon="1.5339">
        <ele>247.2</ele>
        <time>2022-03-17T13:50:25Z</time>
      </trkpt>
      <trkpt lat="44.48262" lon="1.53378">
        <ele>246.23</ele>
        <time>2022-03-17T13:50:37Z</time>
      </trkpt>
      <trkpt lat="44.4827" lon="1.53364">
        <ele>245.75</ele>
        <time>2022-03-17T13:50:51Z</time>
      </trkpt>
      <trkpt lat="44.4828" lon="1.5335">
        <ele>245.27</ele>
        <time>2022-03-17T13:51:06Z</time>
      </trkpt>
      <trkpt lat="44.4829" lon="1.53335">
        <ele>244.79</ele>
        <time>2022-03-17T13:51:21Z</time>
      </trkpt>
      <trkpt lat="44.48297" lon="1.5332">
        <ele>244.79</ele>
        <time>2022-03-17T13:51:35Z</time>
      </trkpt>
      <trkpt lat="44.48304" lon="1.53295">
        <ele>246.72</ele>
        <time>2022-03-17T13:51:54Z</time>
      </trkpt>
      <trkpt lat="44.48316" lon="1.53292">
        <ele>248.16</ele>
        <time>2022-03-17T13:54:49Z</time>
      </trkpt>
      <trkpt lat="44.48327" lon="1.53302">
        <ele>248.64</ele>
        <time>2022-03-17T13:55:06Z</time>
      </trkpt>
      <trkpt lat="44.48337" lon="1.53312">
        <ele>250.56</ele>
        <time>2022-03-17T13:55:23Z</time>
      </trkpt>
      <trkpt lat="44.48353" lon="1.53326">
        <ele>253.93</ele>
        <time>2022-03-17T13:55:49Z</time>
      </trkpt>
      <trkpt lat="44.48364" lon="1.53336">
        <ele>254.89</ele>
        <time>2022-03-17T13:56:04Z</time>
      </trkpt>
      <trkpt lat="44.48385" lon="1.53352">
        <ele>257.29</ele>
        <time>2022-03-17T13:56:37Z</time>
      </trkpt>
      <trkpt lat="44.48403" lon="1.53366">
        <ele>259.69</ele>
        <time>2022-03-17T13:56:59Z</time>
      </trkpt>
      <trkpt lat="44.48413" lon="1.53376">
        <ele>261.62</ele>
        <time>2022-03-17T13:57:14Z</time>
      </trkpt>
      <trkpt lat="44.48424" lon="1.53386">
        <ele>263.06</ele>
        <time>2022-03-17T13:57:27Z</time>
      </trkpt>
      <trkpt lat="44.48435" lon="1.53397">
        <ele>264.98</ele>
        <time>2022-03-17T13:57:43Z</time>
      </trkpt>
      <trkpt lat="44.48446" lon="1.53407">
        <ele>266.9</ele>
        <time>2022-03-17T13:57:57Z</time>
      </trkpt>
      <trkpt lat="44.48455" lon="1.53417">
        <ele>268.35</ele>
        <time>2022-03-17T13:58:10Z</time>
      </trkpt>
      <trkpt lat="44.48467" lon="1.53431">
        <ele>269.79</ele>
        <time>2022-03-17T13:58:26Z</time>
      </trkpt>
      <trkpt lat="44.48477" lon="1.53442">
        <ele>270.75</ele>
        <time>2022-03-17T13:58:39Z</time>
      </trkpt>
      <trkpt lat="44.48489" lon="1.53454">
        <ele>272.19</ele>
        <time>2022-03-17T13:58:54Z</time>
      </trkpt>
      <trkpt lat="44.48502" lon="1.53465">
        <ele>273.63</ele>
        <time>2022-03-17T13:59:08Z</time>
      </trkpt>
      <trkpt lat="44.48513" lon="1.53476">
        <ele>274.59</ele>
        <time>2022-03-17T13:59:21Z</time>
      </trkpt>
      <trkpt lat="44.48522" lon="1.53485">
        <ele>275.07</ele>
        <time>2022-03-17T13:59:32Z</time>
      </trkpt>
      <trkpt lat="44.4853" lon="1.53497">
        <ele>276.04</ele>
        <time>2022-03-17T13:59:43Z</time>
      </trkpt>
      <trkpt lat="44.48533" lon="1.53512">
        <ele>275.56</ele>
        <time>2022-03-17T13:59:56Z</time>
      </trkpt>
      <trkpt lat="44.48533" lon="1.53528">
        <ele>274.59</ele>
        <time>2022-03-17T14:00:08Z</time>
      </trkpt>
      <trkpt lat="44.4853" lon="1.53547">
        <ele>273.63</ele>
        <time>2022-03-17T14:00:21Z</time>
      </trkpt>
      <trkpt lat="44.48531" lon="1.53565">
        <ele>272.67</ele>
        <time>2022-03-17T14:00:36Z</time>
      </trkpt>
      <trkpt lat="44.48535" lon="1.53583">
        <ele>271.71</ele>
        <time>2022-03-17T14:00:51Z</time>
      </trkpt>
      <trkpt lat="44.4854" lon="1.53599">
        <ele>270.75</ele>
        <time>2022-03-17T14:01:06Z</time>
      </trkpt>
      <trkpt lat="44.48544" lon="1.53615">
        <ele>269.79</ele>
        <time>2022-03-17T14:01:17Z</time>
      </trkpt>
      <trkpt lat="44.48548" lon="1.53629">
        <ele>269.31</ele>
        <time>2022-03-17T14:01:27Z</time>
      </trkpt>
      <trkpt lat="44.48551" lon="1.53645">
        <ele>269.31</ele>
        <time>2022-03-17T14:01:37Z</time>
      </trkpt>
      <trkpt lat="44.48554" lon="1.53661">
        <ele>269.31</ele>
        <time>2022-03-17T14:01:47Z</time>
      </trkpt>
      <trkpt lat="44.48558" lon="1.53675">
        <ele>269.31</ele>
        <time>2022-03-17T14:02:00Z</time>
      </trkpt>
      <trkpt lat="44.48564" lon="1.53688">
        <ele>269.31</ele>
        <time>2022-03-17T14:02:10Z</time>
      </trkpt>
      <trkpt lat="44.48571" lon="1.537">
        <ele>269.31</ele>
        <time>2022-03-17T14:02:22Z</time>
      </trkpt>
      <trkpt lat="44.48577" lon="1.53713">
        <ele>269.31</ele>
        <time>2022-03-17T14:02:32Z</time>
      </trkpt>
      <trkpt lat="44.48586" lon="1.5372">
        <ele>270.75</ele>
        <time>2022-03-17T14:02:42Z</time>
      </trkpt>
      <trkpt lat="44.48596" lon="1.5372">
        <ele>270.75</ele>
        <time>2022-03-17T14:02:54Z</time>
      </trkpt>
      <trkpt lat="44.48606" lon="1.53715">
        <ele>270.75</ele>
        <time>2022-03-17T14:03:05Z</time>
      </trkpt>
      <trkpt lat="44.48612" lon="1.53719">
        <ele>270.75</ele>
        <time>2022-03-17T14:04:09Z</time>
      </trkpt>
      <trkpt lat="44.48611" lon="1.53705">
        <ele>270.75</ele>
        <time>2022-03-17T14:04:24Z</time>
      </trkpt>
      <trkpt lat="44.4861" lon="1.5369">
        <ele>271.23</ele>
        <time>2022-03-17T14:04:33Z</time>
      </trkpt>
      <trkpt lat="44.48611" lon="1.53673">
        <ele>271.23</ele>
        <time>2022-03-17T14:04:43Z</time>
      </trkpt>
      <trkpt lat="44.48613" lon="1.53655">
        <ele>271.23</ele>
        <time>2022-03-17T14:04:54Z</time>
      </trkpt>
      <trkpt lat="44.48614" lon="1.53632">
        <ele>271.23</ele>
        <time>2022-03-17T14:05:07Z</time>
      </trkpt>
      <trkpt lat="44.48615" lon="1.53612">
        <ele>271.23</ele>
        <time>2022-03-17T14:05:18Z</time>
      </trkpt>
      <trkpt lat="44.48617" lon="1.53593">
        <ele>271.71</ele>
        <time>2022-03-17T14:05:29Z</time>
      </trkpt>
      <trkpt lat="44.48619" lon="1.53575">
        <ele>272.67</ele>
        <time>2022-03-17T14:05:39Z</time>
      </trkpt>
      <trkpt lat="44.48622" lon="1.53558">
        <ele>274.11</ele>
        <time>2022-03-17T14:05:50Z</time>
      </trkpt>
      <trkpt lat="44.48621" lon="1.5354">
        <ele>275.56</ele>
        <time>2022-03-17T14:06:50Z</time>
      </trkpt>
      <trkpt lat="44.48629" lon="1.53526">
        <ele>276.04</ele>
        <time>2022-03-17T14:07:06Z</time>
      </trkpt>
      <trkpt lat="44.48637" lon="1.53516">
        <ele>276.04</ele>
        <time>2022-03-17T14:07:15Z</time>
      </trkpt>
      <trkpt lat="44.48646" lon="1.53503">
        <ele>276.52</ele>
        <time>2022-03-17T14:07:25Z</time>
      </trkpt>
      <trkpt lat="44.48654" lon="1.53493">
        <ele>276.52</ele>
        <time>2022-03-17T14:07:35Z</time>
      </trkpt>
      <trkpt lat="44.48662" lon="1.53483">
        <ele>276.52</ele>
        <time>2022-03-17T14:07:44Z</time>
      </trkpt>
      <trkpt lat="44.4867" lon="1.53474">
        <ele>276.52</ele>
        <time>2022-03-17T14:07:53Z</time>
      </trkpt>
      <trkpt lat="44.48678" lon="1.53462">
        <ele>277</ele>
        <time>2022-03-17T14:08:06Z</time>
      </trkpt>
      <trkpt lat="44.48686" lon="1.53452">
        <ele>277</ele>
        <time>2022-03-17T14:08:15Z</time>
      </trkpt>
      <trkpt lat="44.48694" lon="1.53441">
        <ele>277.48</ele>
        <time>2022-03-17T14:08:33Z</time>
      </trkpt>
      <trkpt lat="44.48707" lon="1.53427">
        <ele>277.48</ele>
        <time>2022-03-17T14:08:53Z</time>
      </trkpt>
      <trkpt lat="44.48717" lon="1.53414">
        <ele>277.96</ele>
        <time>2022-03-17T14:09:03Z</time>
      </trkpt>
      <trkpt lat="44.48727" lon="1.53404">
        <ele>278.44</ele>
        <time>2022-03-17T14:09:14Z</time>
      </trkpt>
      <trkpt lat="44.48736" lon="1.53394">
        <ele>279.88</ele>
        <time>2022-03-17T14:09:24Z</time>
      </trkpt>
      <trkpt lat="44.48745" lon="1.53385">
        <ele>279.4</ele>
        <time>2022-03-17T14:09:34Z</time>
      </trkpt>
      <trkpt lat="44.48755" lon="1.53376">
        <ele>279.88</ele>
        <time>2022-03-17T14:09:44Z</time>
      </trkpt>
      <trkpt lat="44.48762" lon="1.53366">
        <ele>280.84</ele>
        <time>2022-03-17T14:09:54Z</time>
      </trkpt>
      <trkpt lat="44.48769" lon="1.53355">
        <ele>280.84</ele>
        <time>2022-03-17T14:10:13Z</time>
      </trkpt>
      <trkpt lat="44.48776" lon="1.53346">
        <ele>281.32</ele>
        <time>2022-03-17T14:10:23Z</time>
      </trkpt>
      <trkpt lat="44.48785" lon="1.53334">
        <ele>281.8</ele>
        <time>2022-03-17T14:10:34Z</time>
      </trkpt>
      <trkpt lat="44.48794" lon="1.53323">
        <ele>282.28</ele>
        <time>2022-03-17T14:10:43Z</time>
      </trkpt>
      <trkpt lat="44.48802" lon="1.53312">
        <ele>283.73</ele>
        <time>2022-03-17T14:10:53Z</time>
      </trkpt>
      <trkpt lat="44.4881" lon="1.533">
        <ele>284.21</ele>
        <time>2022-03-17T14:11:22Z</time>
      </trkpt>
      <trkpt lat="44.4882" lon="1.5329">
        <ele>284.69</ele>
        <time>2022-03-17T14:12:13Z</time>
      </trkpt>
      <trkpt lat="44.4883" lon="1.53282">
        <ele>285.17</ele>
        <time>2022-03-17T14:12:24Z</time>
      </trkpt>
      <trkpt lat="44.4884" lon="1.53272">
        <ele>285.65</ele>
        <time>2022-03-17T14:12:36Z</time>
      </trkpt>
      <trkpt lat="44.4885" lon="1.53264">
        <ele>286.61</ele>
        <time>2022-03-17T14:12:47Z</time>
      </trkpt>
      <trkpt lat="44.48859" lon="1.53255">
        <ele>287.09</ele>
        <time>2022-03-17T14:12:57Z</time>
      </trkpt>
      <trkpt lat="44.48869" lon="1.53245">
        <ele>288.05</ele>
        <time>2022-03-17T14:13:08Z</time>
      </trkpt>
      <trkpt lat="44.48878" lon="1.53235">
        <ele>289.01</ele>
        <time>2022-03-17T14:13:19Z</time>
      </trkpt>
      <trkpt lat="44.48887" lon="1.53226">
        <ele>289.49</ele>
        <time>2022-03-17T14:13:29Z</time>
      </trkpt>
      <trkpt lat="44.48894" lon="1.53214">
        <ele>290.94</ele>
        <time>2022-03-17T14:13:39Z</time>
      </trkpt>
      <trkpt lat="44.489" lon="1.532">
        <ele>292.86</ele>
        <time>2022-03-17T14:13:51Z</time>
      </trkpt>
      <trkpt lat="44.48906" lon="1.53185">
        <ele>294.3</ele>
        <time>2022-03-17T14:14:02Z</time>
      </trkpt>
      <trkpt lat="44.48912" lon="1.5317">
        <ele>296.22</ele>
        <time>2022-03-17T14:14:14Z</time>
      </trkpt>
      <trkpt lat="44.48919" lon="1.53156">
        <ele>297.67</ele>
        <time>2022-03-17T14:14:25Z</time>
      </trkpt>
      <trkpt lat="44.48925" lon="1.53143">
        <ele>299.11</ele>
        <time>2022-03-17T14:14:37Z</time>
      </trkpt>
      <trkpt lat="44.4893" lon="1.53125">
        <ele>301.03</ele>
        <time>2022-03-17T14:14:52Z</time>
      </trkpt>
      <trkpt lat="44.48931" lon="1.53108">
        <ele>302.47</ele>
        <time>2022-03-17T14:15:04Z</time>
      </trkpt>
      <trkpt lat="44.48923" lon="1.53092">
        <ele>303.91</ele>
        <time>2022-03-17T14:15:18Z</time>
      </trkpt>
      <trkpt lat="44.48914" lon="1.53083">
        <ele>304.39</ele>
        <time>2022-03-17T14:15:29Z</time>
      </trkpt>
      <trkpt lat="44.48907" lon="1.53067">
        <ele>305.84</ele>
        <time>2022-03-17T14:15:45Z</time>
      </trkpt>
      <trkpt lat="44.48903" lon="1.53047">
        <ele>308.24</ele>
        <time>2022-03-17T14:15:59Z</time>
      </trkpt>
      <trkpt lat="44.48899" lon="1.5303">
        <ele>309.68</ele>
        <time>2022-03-17T14:16:12Z</time>
      </trkpt>
      <trkpt lat="44.48897" lon="1.53013">
        <ele>311.6</ele>
        <time>2022-03-17T14:16:26Z</time>
      </trkpt>
      <trkpt lat="44.48894" lon="1.52999">
        <ele>313.53</ele>
        <time>2022-03-17T14:16:39Z</time>
      </trkpt>
      <trkpt lat="44.48889" lon="1.52983">
        <ele>315.45</ele>
        <time>2022-03-17T14:16:53Z</time>
      </trkpt>
      <trkpt lat="44.48885" lon="1.52969">
        <ele>316.89</ele>
        <time>2022-03-17T14:17:06Z</time>
      </trkpt>
      <trkpt lat="44.48879" lon="1.52957">
        <ele>317.37</ele>
        <time>2022-03-17T14:17:17Z</time>
      </trkpt>
      <trkpt lat="44.48874" lon="1.52944">
        <ele>318.33</ele>
        <time>2022-03-17T14:17:29Z</time>
      </trkpt>
      <trkpt lat="44.48867" lon="1.52931">
        <ele>318.33</ele>
        <time>2022-03-17T14:17:42Z</time>
      </trkpt>
      <trkpt lat="44.4886" lon="1.52917">
        <ele>318.81</ele>
        <time>2022-03-17T14:17:54Z</time>
      </trkpt>
      <trkpt lat="44.48853" lon="1.52901">
        <ele>318.81</ele>
        <time>2022-03-17T14:18:06Z</time>
      </trkpt>
      <trkpt lat="44.48849" lon="1.52886">
        <ele>318.81</ele>
        <time>2022-03-17T14:18:17Z</time>
      </trkpt>
      <trkpt lat="44.48847" lon="1.52868">
        <ele>318.81</ele>
        <time>2022-03-17T14:18:28Z</time>
      </trkpt>
      <trkpt lat="44.48846" lon="1.5285">
        <ele>317.37</ele>
        <time>2022-03-17T14:18:39Z</time>
      </trkpt>
      <trkpt lat="44.48843" lon="1.52833">
        <ele>317.37</ele>
        <time>2022-03-17T14:18:50Z</time>
      </trkpt>
      <trkpt lat="44.48839" lon="1.52815">
        <ele>316.41</ele>
        <time>2022-03-17T14:19:02Z</time>
      </trkpt>
      <trkpt lat="44.48831" lon="1.52804">
        <ele>315.45</ele>
        <time>2022-03-17T14:19:14Z</time>
      </trkpt>
      <trkpt lat="44.48825" lon="1.52792">
        <ele>314.97</ele>
        <time>2022-03-17T14:19:26Z</time>
      </trkpt>
      <trkpt lat="44.48822" lon="1.52775">
        <ele>314.01</ele>
        <time>2022-03-17T14:19:37Z</time>
      </trkpt>
      <trkpt lat="44.48818" lon="1.52757">
        <ele>313.05</ele>
        <time>2022-03-17T14:19:49Z</time>
      </trkpt>
      <trkpt lat="44.48813" lon="1.52738">
        <ele>312.09</ele>
        <time>2022-03-17T14:20:03Z</time>
      </trkpt>
      <trkpt lat="44.48809" lon="1.5272">
        <ele>311.12</ele>
        <time>2022-03-17T14:20:14Z</time>
      </trkpt>
      <trkpt lat="44.48807" lon="1.52703">
        <ele>310.64</ele>
        <time>2022-03-17T14:20:23Z</time>
      </trkpt>
      <trkpt lat="44.48805" lon="1.52687">
        <ele>310.16</ele>
        <time>2022-03-17T14:20:33Z</time>
      </trkpt>
      <trkpt lat="44.48804" lon="1.52671">
        <ele>309.2</ele>
        <time>2022-03-17T14:20:44Z</time>
      </trkpt>
      <trkpt lat="44.488" lon="1.52652">
        <ele>307.76</ele>
        <time>2022-03-17T14:20:57Z</time>
      </trkpt>
      <trkpt lat="44.48798" lon="1.52634">
        <ele>306.8</ele>
        <time>2022-03-17T14:21:07Z</time>
      </trkpt>
      <trkpt lat="44.48797" lon="1.52616">
        <ele>305.84</ele>
        <time>2022-03-17T14:21:18Z</time>
      </trkpt>
      <trkpt lat="44.48795" lon="1.52595">
        <ele>305.36</ele>
        <time>2022-03-17T14:21:31Z</time>
      </trkpt>
      <trkpt lat="44.48794" lon="1.52577">
        <ele>304.39</ele>
        <time>2022-03-17T14:21:42Z</time>
      </trkpt>
      <trkpt lat="44.48794" lon="1.52558">
        <ele>304.39</ele>
        <time>2022-03-17T14:21:53Z</time>
      </trkpt>
      <trkpt lat="44.48792" lon="1.5254">
        <ele>303.91</ele>
        <time>2022-03-17T14:22:04Z</time>
      </trkpt>
      <trkpt lat="44.48792" lon="1.52525">
        <ele>303.91</ele>
        <time>2022-03-17T14:22:13Z</time>
      </trkpt>
      <trkpt lat="44.48789" lon="1.52506">
        <ele>303.91</ele>
        <time>2022-03-17T14:22:25Z</time>
      </trkpt>
      <trkpt lat="44.48788" lon="1.52486">
        <ele>303.91</ele>
        <time>2022-03-17T14:22:36Z</time>
      </trkpt>
      <trkpt lat="44.48785" lon="1.52469">
        <ele>305.36</ele>
        <time>2022-03-17T14:22:47Z</time>
      </trkpt>
      <trkpt lat="44.48782" lon="1.52451">
        <ele>305.36</ele>
        <time>2022-03-17T14:22:58Z</time>
      </trkpt>
      <trkpt lat="44.48781" lon="1.52435">
        <ele>305.36</ele>
        <time>2022-03-17T14:23:08Z</time>
      </trkpt>
      <trkpt lat="44.48776" lon="1.52417">
        <ele>304.88</ele>
        <time>2022-03-17T14:27:50Z</time>
      </trkpt>
      <trkpt lat="44.48777" lon="1.52402">
        <ele>304.39</ele>
        <time>2022-03-17T14:28:04Z</time>
      </trkpt>
      <trkpt lat="44.48777" lon="1.52388">
        <ele>304.39</ele>
        <time>2022-03-17T14:28:14Z</time>
      </trkpt>
      <trkpt lat="44.48776" lon="1.52374">
        <ele>302.95</ele>
        <time>2022-03-17T14:28:24Z</time>
      </trkpt>
      <trkpt lat="44.48776" lon="1.52361">
        <ele>301.99</ele>
        <time>2022-03-17T14:28:35Z</time>
      </trkpt>
      <trkpt lat="44.48775" lon="1.52348">
        <ele>301.03</ele>
        <time>2022-03-17T14:28:45Z</time>
      </trkpt>
      <trkpt lat="44.48775" lon="1.52332">
        <ele>300.07</ele>
        <time>2022-03-17T14:28:55Z</time>
      </trkpt>
      <trkpt lat="44.48773" lon="1.52317">
        <ele>298.63</ele>
        <time>2022-03-17T14:29:06Z</time>
      </trkpt>
      <trkpt lat="44.48772" lon="1.52302">
        <ele>297.67</ele>
        <time>2022-03-17T14:29:17Z</time>
      </trkpt>
      <trkpt lat="44.48767" lon="1.52287">
        <ele>295.74</ele>
        <time>2022-03-17T14:29:30Z</time>
      </trkpt>
      <trkpt lat="44.48763" lon="1.52272">
        <ele>294.3</ele>
        <time>2022-03-17T14:29:41Z</time>
      </trkpt>
      <trkpt lat="44.4876" lon="1.52258">
        <ele>292.38</ele>
        <time>2022-03-17T14:29:52Z</time>
      </trkpt>
      <trkpt lat="44.48754" lon="1.52243">
        <ele>290.94</ele>
        <time>2022-03-17T14:30:04Z</time>
      </trkpt>
      <trkpt lat="44.48748" lon="1.52229">
        <ele>289.49</ele>
        <time>2022-03-17T14:30:17Z</time>
      </trkpt>
      <trkpt lat="44.48741" lon="1.52212">
        <ele>287.57</ele>
        <time>2022-03-17T14:30:33Z</time>
      </trkpt>
      <trkpt lat="44.48736" lon="1.52197">
        <ele>285.65</ele>
        <time>2022-03-17T14:30:45Z</time>
      </trkpt>
      <trkpt lat="44.48732" lon="1.52182">
        <ele>284.21</ele>
        <time>2022-03-17T14:30:56Z</time>
      </trkpt>
      <trkpt lat="44.48727" lon="1.52166">
        <ele>282.77</ele>
        <time>2022-03-17T14:31:08Z</time>
      </trkpt>
      <trkpt lat="44.48725" lon="1.52148">
        <ele>280.84</ele>
        <time>2022-03-17T14:31:21Z</time>
      </trkpt>
      <trkpt lat="44.48724" lon="1.52129">
        <ele>279.4</ele>
        <time>2022-03-17T14:31:34Z</time>
      </trkpt>
      <trkpt lat="44.48714" lon="1.52121">
        <ele>277.48</ele>
        <time>2022-03-17T14:31:52Z</time>
      </trkpt>
      <trkpt lat="44.48708" lon="1.52133">
        <ele>278.92</ele>
        <time>2022-03-17T14:32:07Z</time>
      </trkpt>
      <trkpt lat="44.487" lon="1.52146">
        <ele>278.44</ele>
        <time>2022-03-17T14:32:26Z</time>
      </trkpt>
      <trkpt lat="44.48692" lon="1.52158">
        <ele>278.44</ele>
        <time>2022-03-17T14:32:39Z</time>
      </trkpt>
      <trkpt lat="44.48684" lon="1.52174">
        <ele>277</ele>
        <time>2022-03-17T14:32:52Z</time>
      </trkpt>
      <trkpt lat="44.48676" lon="1.52187">
        <ele>275.07</ele>
        <time>2022-03-17T14:33:11Z</time>
      </trkpt>
      <trkpt lat="44.48671" lon="1.52202">
        <ele>273.15</ele>
        <time>2022-03-17T14:33:27Z</time>
      </trkpt>
      <trkpt lat="44.48674" lon="1.52218">
        <ele>273.15</ele>
        <time>2022-03-17T14:33:39Z</time>
      </trkpt>
      <trkpt lat="44.48677" lon="1.52236">
        <ele>275.56</ele>
        <time>2022-03-17T14:33:53Z</time>
      </trkpt>
      <trkpt lat="44.48674" lon="1.52253">
        <ele>276.52</ele>
        <time>2022-03-17T14:34:06Z</time>
      </trkpt>
      <trkpt lat="44.48671" lon="1.52269">
        <ele>277</ele>
        <time>2022-03-17T14:34:20Z</time>
      </trkpt>
      <trkpt lat="44.48669" lon="1.52292">
        <ele>277.96</ele>
        <time>2022-03-17T14:34:38Z</time>
      </trkpt>
      <trkpt lat="44.4867" lon="1.5231">
        <ele>278.44</ele>
        <time>2022-03-17T14:34:51Z</time>
      </trkpt>
      <trkpt lat="44.4867" lon="1.52327">
        <ele>278.92</ele>
        <time>2022-03-17T14:35:04Z</time>
      </trkpt>
      <trkpt lat="44.48668" lon="1.52345">
        <ele>280.36</ele>
        <time>2022-03-17T14:35:18Z</time>
      </trkpt>
      <trkpt lat="44.48662" lon="1.52364">
        <ele>281.32</ele>
        <time>2022-03-17T14:35:33Z</time>
      </trkpt>
      <trkpt lat="44.48652" lon="1.52384">
        <ele>283.25</ele>
        <time>2022-03-17T14:35:50Z</time>
      </trkpt>
      <trkpt lat="44.48645" lon="1.52399">
        <ele>285.17</ele>
        <time>2022-03-17T14:36:05Z</time>
      </trkpt>
      <trkpt lat="44.4864" lon="1.52413">
        <ele>286.13</ele>
        <time>2022-03-17T14:36:17Z</time>
      </trkpt>
      <trkpt lat="44.48635" lon="1.5243">
        <ele>286.61</ele>
        <time>2022-03-17T14:36:28Z</time>
      </trkpt>
      <trkpt lat="44.48627" lon="1.52444">
        <ele>287.09</ele>
        <time>2022-03-17T14:36:40Z</time>
      </trkpt>
      <trkpt lat="44.48622" lon="1.5246">
        <ele>287.09</ele>
        <time>2022-03-17T14:36:51Z</time>
      </trkpt>
      <trkpt lat="44.48617" lon="1.52476">
        <ele>287.09</ele>
        <time>2022-03-17T14:37:02Z</time>
      </trkpt>
      <trkpt lat="44.48613" lon="1.52492">
        <ele>287.09</ele>
        <time>2022-03-17T14:37:14Z</time>
      </trkpt>
      <trkpt lat="44.4861" lon="1.52509">
        <ele>287.09</ele>
        <time>2022-03-17T14:37:24Z</time>
      </trkpt>
      <trkpt lat="44.48607" lon="1.52525">
        <ele>285.65</ele>
        <time>2022-03-17T14:37:35Z</time>
      </trkpt>
      <trkpt lat="44.48604" lon="1.5254">
        <ele>285.17</ele>
        <time>2022-03-17T14:37:45Z</time>
      </trkpt>
      <trkpt lat="44.48602" lon="1.52557">
        <ele>285.17</ele>
        <time>2022-03-17T14:37:57Z</time>
      </trkpt>
      <trkpt lat="44.48602" lon="1.52573">
        <ele>285.17</ele>
        <time>2022-03-17T14:38:07Z</time>
      </trkpt>
      <trkpt lat="44.486" lon="1.52591">
        <ele>285.17</ele>
        <time>2022-03-17T14:38:17Z</time>
      </trkpt>
      <trkpt lat="44.48598" lon="1.52607">
        <ele>284.21</ele>
        <time>2022-03-17T14:38:26Z</time>
      </trkpt>
      <trkpt lat="44.48596" lon="1.52623">
        <ele>283.73</ele>
        <time>2022-03-17T14:38:37Z</time>
      </trkpt>
      <trkpt lat="44.48594" lon="1.52639">
        <ele>283.73</ele>
        <time>2022-03-17T14:38:47Z</time>
      </trkpt>
      <trkpt lat="44.48593" lon="1.52656">
        <ele>281.8</ele>
        <time>2022-03-17T14:38:58Z</time>
      </trkpt>
      <trkpt lat="44.48592" lon="1.52674">
        <ele>281.32</ele>
        <time>2022-03-17T14:39:12Z</time>
      </trkpt>
      <trkpt lat="44.48587" lon="1.52692">
        <ele>279.4</ele>
        <time>2022-03-17T14:39:26Z</time>
      </trkpt>
      <trkpt lat="44.48584" lon="1.5271">
        <ele>277.96</ele>
        <time>2022-03-17T14:39:42Z</time>
      </trkpt>
      <trkpt lat="44.48582" lon="1.52729">
        <ele>275.07</ele>
        <time>2022-03-17T14:39:58Z</time>
      </trkpt>
      <trkpt lat="44.48582" lon="1.52748">
        <ele>272.67</ele>
        <time>2022-03-17T14:40:12Z</time>
      </trkpt>
      <trkpt lat="44.48585" lon="1.52764">
        <ele>270.75</ele>
        <time>2022-03-17T14:40:25Z</time>
      </trkpt>
      <trkpt lat="44.48588" lon="1.5278">
        <ele>268.83</ele>
        <time>2022-03-17T14:40:37Z</time>
      </trkpt>
      <trkpt lat="44.48591" lon="1.52794">
        <ele>266.42</ele>
        <time>2022-03-17T14:40:47Z</time>
      </trkpt>
      <trkpt lat="44.48594" lon="1.52809">
        <ele>264.5</ele>
        <time>2022-03-17T14:40:58Z</time>
      </trkpt>
      <trkpt lat="44.486" lon="1.52824">
        <ele>263.54</ele>
        <time>2022-03-17T14:41:10Z</time>
      </trkpt>
      <trkpt lat="44.48606" lon="1.52848">
        <ele>262.58</ele>
        <time>2022-03-17T14:41:30Z</time>
      </trkpt>
      <trkpt lat="44.48597" lon="1.52885">
        <ele>262.1</ele>
        <time>2022-03-17T14:43:06Z</time>
      </trkpt>
      <trkpt lat="44.48589" lon="1.52902">
        <ele>261.62</ele>
        <time>2022-03-17T14:43:19Z</time>
      </trkpt>
      <trkpt lat="44.48582" lon="1.52917">
        <ele>261.62</ele>
        <time>2022-03-17T14:43:31Z</time>
      </trkpt>
      <trkpt lat="44.48577" lon="1.5293">
        <ele>261.62</ele>
        <time>2022-03-17T14:43:43Z</time>
      </trkpt>
      <trkpt lat="44.48569" lon="1.52943">
        <ele>261.14</ele>
        <time>2022-03-17T14:43:56Z</time>
      </trkpt>
      <trkpt lat="44.4856" lon="1.52958">
        <ele>260.65</ele>
        <time>2022-03-17T14:44:08Z</time>
      </trkpt>
      <trkpt lat="44.48552" lon="1.52972">
        <ele>260.17</ele>
        <time>2022-03-17T14:44:21Z</time>
      </trkpt>
      <trkpt lat="44.48543" lon="1.52983">
        <ele>260.17</ele>
        <time>2022-03-17T14:44:32Z</time>
      </trkpt>
      <trkpt lat="44.48534" lon="1.52994">
        <ele>260.17</ele>
        <time>2022-03-17T14:44:43Z</time>
      </trkpt>
      <trkpt lat="44.48525" lon="1.53004">
        <ele>260.17</ele>
        <time>2022-03-17T14:44:54Z</time>
      </trkpt>
      <trkpt lat="44.48516" lon="1.53016">
        <ele>260.17</ele>
        <time>2022-03-17T14:45:05Z</time>
      </trkpt>
      <trkpt lat="44.48507" lon="1.53027">
        <ele>260.17</ele>
        <time>2022-03-17T14:45:16Z</time>
      </trkpt>
      <trkpt lat="44.48497" lon="1.53037">
        <ele>261.62</ele>
        <time>2022-03-17T14:45:27Z</time>
      </trkpt>
      <trkpt lat="44.48489" lon="1.53046">
        <ele>261.62</ele>
        <time>2022-03-17T14:45:38Z</time>
      </trkpt>
      <trkpt lat="44.4848" lon="1.53058">
        <ele>261.62</ele>
        <time>2022-03-17T14:45:49Z</time>
      </trkpt>
      <trkpt lat="44.48471" lon="1.53067">
        <ele>259.69</ele>
        <time>2022-03-17T14:46:01Z</time>
      </trkpt>
      <trkpt lat="44.48461" lon="1.53074">
        <ele>258.73</ele>
        <time>2022-03-17T14:46:11Z</time>
      </trkpt>
      <trkpt lat="44.4845" lon="1.53079">
        <ele>258.25</ele>
        <time>2022-03-17T14:46:24Z</time>
      </trkpt>
      <trkpt lat="44.4844" lon="1.53084">
        <ele>257.29</ele>
        <time>2022-03-17T14:46:35Z</time>
      </trkpt>
      <trkpt lat="44.4843" lon="1.53089">
        <ele>256.81</ele>
        <time>2022-03-17T14:46:45Z</time>
      </trkpt>
      <trkpt lat="44.48421" lon="1.53098">
        <ele>256.33</ele>
        <time>2022-03-17T14:46:54Z</time>
      </trkpt>
      <trkpt lat="44.48412" lon="1.53107">
        <ele>255.85</ele>
        <time>2022-03-17T14:47:04Z</time>
      </trkpt>
      <trkpt lat="44.48403" lon="1.53117">
        <ele>255.37</ele>
        <time>2022-03-17T14:47:14Z</time>
      </trkpt>
      <trkpt lat="44.48395" lon="1.53131">
        <ele>254.41</ele>
        <time>2022-03-17T14:47:25Z</time>
      </trkpt>
      <trkpt lat="44.48385" lon="1.53143">
        <ele>254.41</ele>
        <time>2022-03-17T14:47:35Z</time>
      </trkpt>
      <trkpt lat="44.48378" lon="1.53156">
        <ele>254.41</ele>
        <time>2022-03-17T14:47:46Z</time>
      </trkpt>
      <trkpt lat="44.48371" lon="1.53168">
        <ele>254.41</ele>
        <time>2022-03-17T14:47:56Z</time>
      </trkpt>
      <trkpt lat="44.48365" lon="1.5318">
        <ele>253.93</ele>
        <time>2022-03-17T14:48:06Z</time>
      </trkpt>
      <trkpt lat="44.48352" lon="1.53192">
        <ele>252.96</ele>
        <time>2022-03-17T14:48:21Z</time>
      </trkpt>
      <trkpt lat="44.48339" lon="1.53191">
        <ele>252.48</ele>
        <time>2022-03-17T14:48:32Z</time>
      </trkpt>
      <trkpt lat="44.48328" lon="1.53188">
        <ele>252</ele>
        <time>2022-03-17T14:48:43Z</time>
      </trkpt>
      <trkpt lat="44.48313" lon="1.53186">
        <ele>251.52</ele>
        <time>2022-03-17T14:48:54Z</time>
      </trkpt>
      <trkpt lat="44.483" lon="1.53183">
        <ele>251.52</ele>
        <time>2022-03-17T14:49:07Z</time>
      </trkpt>
      <trkpt lat="44.48284" lon="1.53178">
        <ele>250.56</ele>
        <time>2022-03-17T14:49:21Z</time>
      </trkpt>
      <trkpt lat="44.48268" lon="1.53175">
        <ele>250.08</ele>
        <time>2022-03-17T14:49:36Z</time>
      </trkpt>
      <trkpt lat="44.48254" lon="1.53174">
        <ele>249.12</ele>
        <time>2022-03-17T14:49:48Z</time>
      </trkpt>
      <trkpt lat="44.48243" lon="1.53175">
        <ele>248.16</ele>
        <time>2022-03-17T14:50:00Z</time>
      </trkpt>
      <trkpt lat="44.48231" lon="1.53171">
        <ele>247.2</ele>
        <time>2022-03-17T14:50:14Z</time>
      </trkpt>
      <trkpt lat="44.48219" lon="1.53166">
        <ele>245.75</ele>
        <time>2022-03-17T14:50:27Z</time>
      </trkpt>
      <trkpt lat="44.48209" lon="1.53162">
        <ele>244.79</ele>
        <time>2022-03-17T14:50:39Z</time>
      </trkpt>
      <trkpt lat="44.48199" lon="1.53159">
        <ele>244.31</ele>
        <time>2022-03-17T14:50:50Z</time>
      </trkpt>
      <trkpt lat="44.48186" lon="1.53158">
        <ele>243.83</ele>
        <time>2022-03-17T14:51:00Z</time>
      </trkpt>
      <trkpt lat="44.48173" lon="1.53157">
        <ele>243.35</ele>
        <time>2022-03-17T14:51:12Z</time>
      </trkpt>
      <trkpt lat="44.48162" lon="1.53163">
        <ele>243.35</ele>
        <time>2022-03-17T14:51:23Z</time>
      </trkpt>
      <trkpt lat="44.48151" lon="1.5317">
        <ele>243.35</ele>
        <time>2022-03-17T14:51:34Z</time>
      </trkpt>
      <trkpt lat="44.4814" lon="1.53182">
        <ele>244.31</ele>
        <time>2022-03-17T14:51:46Z</time>
      </trkpt>
      <trkpt lat="44.48129" lon="1.53192">
        <ele>244.79</ele>
        <time>2022-03-17T14:51:58Z</time>
      </trkpt>
      <trkpt lat="44.48116" lon="1.53205">
        <ele>248.16</ele>
        <time>2022-03-17T14:52:20Z</time>
      </trkpt>
      <trkpt lat="44.48104" lon="1.53218">
        <ele>250.56</ele>
        <time>2022-03-17T14:52:37Z</time>
      </trkpt>
      <trkpt lat="44.48083" lon="1.5324">
        <ele>255.37</ele>
        <time>2022-03-17T14:53:16Z</time>
      </trkpt>
      <trkpt lat="44.48064" lon="1.53254">
        <ele>259.69</ele>
        <time>2022-03-17T14:53:48Z</time>
      </trkpt>
      <trkpt lat="44.48055" lon="1.53263">
        <ele>262.1</ele>
        <time>2022-03-17T14:54:07Z</time>
      </trkpt>
      <trkpt lat="44.48045" lon="1.53271">
        <ele>264.98</ele>
        <time>2022-03-17T14:54:29Z</time>
      </trkpt>
      <trkpt lat="44.48035" lon="1.53277">
        <ele>267.38</ele>
        <time>2022-03-17T14:54:45Z</time>
      </trkpt>
      <trkpt lat="44.48032" lon="1.53293">
        <ele>269.79</ele>
        <time>2022-03-17T14:55:05Z</time>
      </trkpt>
      <trkpt lat="44.48027" lon="1.53306">
        <ele>271.23</ele>
        <time>2022-03-17T14:55:20Z</time>
      </trkpt>
      <trkpt lat="44.48012" lon="1.53308">
        <ele>273.15</ele>
        <time>2022-03-17T14:55:35Z</time>
      </trkpt>
      <trkpt lat="44.48" lon="1.53309">
        <ele>274.11</ele>
        <time>2022-03-17T14:55:47Z</time>
      </trkpt>
      <trkpt lat="44.47988" lon="1.5331">
        <ele>274.59</ele>
        <time>2022-03-17T14:55:58Z</time>
      </trkpt>
      <trkpt lat="44.47977" lon="1.53309">
        <ele>274.59</ele>
        <time>2022-03-17T14:56:10Z</time>
      </trkpt>
      <trkpt lat="44.47966" lon="1.5331">
        <ele>274.59</ele>
        <time>2022-03-17T14:56:20Z</time>
      </trkpt>
      <trkpt lat="44.47955" lon="1.53312">
        <ele>273.63</ele>
        <time>2022-03-17T14:56:29Z</time>
      </trkpt>
      <trkpt lat="44.47946" lon="1.53316">
        <ele>273.63</ele>
        <time>2022-03-17T14:56:52Z</time>
      </trkpt>
      <trkpt lat="44.47935" lon="1.53319">
        <ele>273.15</ele>
        <time>2022-03-17T14:57:15Z</time>
      </trkpt>
      <trkpt lat="44.47924" lon="1.5332">
        <ele>272.67</ele>
        <time>2022-03-17T14:57:27Z</time>
      </trkpt>
      <trkpt lat="44.47915" lon="1.53318">
        <ele>272.67</ele>
        <time>2022-03-17T14:57:39Z</time>
      </trkpt>
      <trkpt lat="44.47913" lon="1.53303">
        <ele>271.23</ele>
        <time>2022-03-17T14:57:52Z</time>
      </trkpt>
      <trkpt lat="44.4791" lon="1.5329">
        <ele>270.75</ele>
        <time>2022-03-17T14:58:02Z</time>
      </trkpt>
      <trkpt lat="44.47908" lon="1.53275">
        <ele>269.31</ele>
        <time>2022-03-17T14:58:12Z</time>
      </trkpt>
      <trkpt lat="44.47905" lon="1.53261">
        <ele>269.31</ele>
        <time>2022-03-17T14:58:22Z</time>
      </trkpt>
      <trkpt lat="44.47899" lon="1.53247">
        <ele>268.83</ele>
        <time>2022-03-17T14:58:33Z</time>
      </trkpt>
      <trkpt lat="44.47893" lon="1.53231">
        <ele>267.86</ele>
        <time>2022-03-17T14:58:46Z</time>
      </trkpt>
      <trkpt lat="44.47887" lon="1.53214">
        <ele>267.86</ele>
        <time>2022-03-17T14:58:56Z</time>
      </trkpt>
      <trkpt lat="44.47883" lon="1.53196">
        <ele>267.86</ele>
        <time>2022-03-17T14:59:07Z</time>
      </trkpt>
      <trkpt lat="44.47882" lon="1.53178">
        <ele>267.86</ele>
        <time>2022-03-17T14:59:17Z</time>
      </trkpt>
      <trkpt lat="44.47883" lon="1.53163">
        <ele>269.79</ele>
        <time>2022-03-17T14:59:27Z</time>
      </trkpt>
      <trkpt lat="44.47885" lon="1.53169">
        <ele>267.86</ele>
        <time>2022-03-17T15:00:35Z</time>
      </trkpt>
      <trkpt lat="44.47886" lon="1.53185">
        <ele>267.86</ele>
        <time>2022-03-17T15:00:44Z</time>
      </trkpt>
      <trkpt lat="44.47889" lon="1.53201">
        <ele>266.9</ele>
        <time>2022-03-17T15:00:54Z</time>
      </trkpt>
      <trkpt lat="44.47893" lon="1.53216">
        <ele>266.9</ele>
        <time>2022-03-17T15:01:04Z</time>
      </trkpt>
      <trkpt lat="44.47898" lon="1.53228">
        <ele>266.9</ele>
        <time>2022-03-17T15:01:12Z</time>
      </trkpt>
      <trkpt lat="44.47902" lon="1.53242">
        <ele>266.9</ele>
        <time>2022-03-17T15:01:21Z</time>
      </trkpt>
      <trkpt lat="44.47908" lon="1.53254">
        <ele>268.35</ele>
        <time>2022-03-17T15:01:31Z</time>
      </trkpt>
      <trkpt lat="44.47911" lon="1.53269">
        <ele>269.31</ele>
        <time>2022-03-17T15:01:41Z</time>
      </trkpt>
      <trkpt lat="44.47913" lon="1.53283">
        <ele>270.27</ele>
        <time>2022-03-17T15:01:50Z</time>
      </trkpt>
      <trkpt lat="44.47915" lon="1.53297">
        <ele>270.75</ele>
        <time>2022-03-17T15:02:00Z</time>
      </trkpt>
      <trkpt lat="44.47914" lon="1.53302">
        <ele>272.19</ele>
        <time>2022-03-17T15:05:38Z</time>
      </trkpt>
      <trkpt lat="44.47911" lon="1.53292">
        <ele>271.23</ele>
        <time>2022-03-17T15:06:22Z</time>
      </trkpt>
      <trkpt lat="44.47913" lon="1.53297">
        <ele>271.23</ele>
        <time>2022-03-17T15:06:36Z</time>
      </trkpt>
      <trkpt lat="44.47908" lon="1.53283">
        <ele>271.23</ele>
        <time>2022-03-17T15:07:31Z</time>
      </trkpt>
      <trkpt lat="44.47905" lon="1.53265">
        <ele>269.79</ele>
        <time>2022-03-17T15:08:07Z</time>
      </trkpt>
      <trkpt lat="44.47899" lon="1.53251">
        <ele>268.83</ele>
        <time>2022-03-17T15:08:21Z</time>
      </trkpt>
      <trkpt lat="44.47895" lon="1.53238">
        <ele>268.35</ele>
        <time>2022-03-17T15:08:31Z</time>
      </trkpt>
      <trkpt lat="44.47889" lon="1.53224">
        <ele>268.35</ele>
        <time>2022-03-17T15:08:42Z</time>
      </trkpt>
      <trkpt lat="44.47885" lon="1.5321">
        <ele>268.35</ele>
        <time>2022-03-17T15:08:52Z</time>
      </trkpt>
      <trkpt lat="44.47882" lon="1.53195">
        <ele>268.35</ele>
        <time>2022-03-17T15:09:02Z</time>
      </trkpt>
      <trkpt lat="44.4788" lon="1.53177">
        <ele>268.35</ele>
        <time>2022-03-17T15:09:14Z</time>
      </trkpt>
      <trkpt lat="44.47881" lon="1.53159">
        <ele>269.79</ele>
        <time>2022-03-17T15:09:27Z</time>
      </trkpt>
      <trkpt lat="44.47883" lon="1.53147">
        <ele>270.27</ele>
        <time>2022-03-17T15:09:48Z</time>
      </trkpt>
      <trkpt lat="44.47878" lon="1.53141">
        <ele>270.75</ele>
        <time>2022-03-17T15:10:21Z</time>
      </trkpt>
      <trkpt lat="44.47869" lon="1.53143">
        <ele>271.23</ele>
        <time>2022-03-17T15:10:38Z</time>
      </trkpt>
      <trkpt lat="44.47859" lon="1.53142">
        <ele>271.23</ele>
        <time>2022-03-17T15:10:51Z</time>
      </trkpt>
      <trkpt lat="44.4785" lon="1.53135">
        <ele>271.23</ele>
        <time>2022-03-17T15:11:03Z</time>
      </trkpt>
      <trkpt lat="44.47842" lon="1.53125">
        <ele>271.23</ele>
        <time>2022-03-17T15:11:12Z</time>
      </trkpt>
      <trkpt lat="44.47834" lon="1.53115">
        <ele>271.23</ele>
        <time>2022-03-17T15:11:22Z</time>
      </trkpt>
      <trkpt lat="44.47828" lon="1.53104">
        <ele>271.23</ele>
        <time>2022-03-17T15:11:32Z</time>
      </trkpt>
      <trkpt lat="44.47821" lon="1.53093">
        <ele>270.27</ele>
        <time>2022-03-17T15:11:43Z</time>
      </trkpt>
      <trkpt lat="44.47811" lon="1.53087">
        <ele>269.31</ele>
        <time>2022-03-17T15:11:58Z</time>
      </trkpt>
      <trkpt lat="44.47801" lon="1.53081">
        <ele>268.35</ele>
        <time>2022-03-17T15:12:06Z</time>
      </trkpt>
      <trkpt lat="44.47796" lon="1.53069">
        <ele>268.35</ele>
        <time>2022-03-17T15:12:14Z</time>
      </trkpt>
      <trkpt lat="44.47794" lon="1.53056">
        <ele>268.35</ele>
        <time>2022-03-17T15:12:23Z</time>
      </trkpt>
      <trkpt lat="44.47796" lon="1.53042">
        <ele>267.86</ele>
        <time>2022-03-17T15:12:32Z</time>
      </trkpt>
      <trkpt lat="44.47798" lon="1.53027">
        <ele>267.38</ele>
        <time>2022-03-17T15:12:42Z</time>
      </trkpt>
      <trkpt lat="44.47798" lon="1.53011">
        <ele>266.9</ele>
        <time>2022-03-17T15:12:52Z</time>
      </trkpt>
      <trkpt lat="44.47795" lon="1.52995">
        <ele>265.94</ele>
        <time>2022-03-17T15:13:07Z</time>
      </trkpt>
      <trkpt lat="44.47791" lon="1.52977">
        <ele>264.98</ele>
        <time>2022-03-17T15:13:19Z</time>
      </trkpt>
      <trkpt lat="44.47791" lon="1.52962">
        <ele>264.5</ele>
        <time>2022-03-17T15:13:30Z</time>
      </trkpt>
      <trkpt lat="44.47792" lon="1.52946">
        <ele>263.54</ele>
        <time>2022-03-17T15:13:42Z</time>
      </trkpt>
      <trkpt lat="44.47795" lon="1.52928">
        <ele>262.58</ele>
        <time>2022-03-17T15:13:54Z</time>
      </trkpt>
      <trkpt lat="44.47797" lon="1.5291">
        <ele>261.62</ele>
        <time>2022-03-17T15:14:07Z</time>
      </trkpt>
      <trkpt lat="44.47796" lon="1.52878">
        <ele>260.65</ele>
        <time>2022-03-17T15:14:28Z</time>
      </trkpt>
      <trkpt lat="44.47803" lon="1.52865">
        <ele>260.65</ele>
        <time>2022-03-17T15:14:42Z</time>
      </trkpt>
      <trkpt lat="44.47812" lon="1.52853">
        <ele>260.17</ele>
        <time>2022-03-17T15:14:54Z</time>
      </trkpt>
      <trkpt lat="44.47823" lon="1.52841">
        <ele>259.69</ele>
        <time>2022-03-17T15:15:07Z</time>
      </trkpt>
      <trkpt lat="44.47834" lon="1.5283">
        <ele>258.73</ele>
        <time>2022-03-17T15:15:19Z</time>
      </trkpt>
      <trkpt lat="44.47846" lon="1.52821">
        <ele>257.77</ele>
        <time>2022-03-17T15:15:32Z</time>
      </trkpt>
      <trkpt lat="44.47858" lon="1.5281">
        <ele>256.33</ele>
        <time>2022-03-17T15:15:47Z</time>
      </trkpt>
      <trkpt lat="44.4787" lon="1.52803">
        <ele>254.41</ele>
        <time>2022-03-17T15:16:01Z</time>
      </trkpt>
      <trkpt lat="44.47881" lon="1.52799">
        <ele>252.48</ele>
        <time>2022-03-17T15:16:13Z</time>
      </trkpt>
      <trkpt lat="44.47893" lon="1.52797">
        <ele>249.6</ele>
        <time>2022-03-17T15:16:26Z</time>
      </trkpt>
      <trkpt lat="44.47905" lon="1.52793">
        <ele>246.72</ele>
        <time>2022-03-17T15:16:41Z</time>
      </trkpt>
      <trkpt lat="44.47918" lon="1.52791">
        <ele>243.83</ele>
        <time>2022-03-17T15:16:56Z</time>
      </trkpt>
      <trkpt lat="44.47932" lon="1.52788">
        <ele>240.95</ele>
        <time>2022-03-17T15:17:14Z</time>
      </trkpt>
      <trkpt lat="44.47946" lon="1.52783">
        <ele>238.06</ele>
        <time>2022-03-17T15:17:30Z</time>
      </trkpt>
      <trkpt lat="44.4796" lon="1.5278">
        <ele>235.18</ele>
        <time>2022-03-17T15:17:49Z</time>
      </trkpt>
      <trkpt lat="44.47972" lon="1.52773">
        <ele>232.3</ele>
        <time>2022-03-17T15:18:06Z</time>
      </trkpt>
      <trkpt lat="44.47985" lon="1.52756">
        <ele>227.01</ele>
        <time>2022-03-17T15:18:40Z</time>
      </trkpt>
      <trkpt lat="44.47991" lon="1.52739">
        <ele>222.68</ele>
        <time>2022-03-17T15:19:06Z</time>
      </trkpt>
      <trkpt lat="44.47997" lon="1.52723">
        <ele>219.8</ele>
        <time>2022-03-17T15:19:25Z</time>
      </trkpt>
      <trkpt lat="44.48001" lon="1.5271">
        <ele>216.91</ele>
        <time>2022-03-17T15:19:42Z</time>
      </trkpt>
      <trkpt lat="44.48005" lon="1.52695">
        <ele>214.51</ele>
        <time>2022-03-17T15:19:59Z</time>
      </trkpt>
      <trkpt lat="44.48008" lon="1.5268">
        <ele>212.11</ele>
        <time>2022-03-17T15:20:14Z</time>
      </trkpt>
      <trkpt lat="44.48011" lon="1.52666">
        <ele>210.19</ele>
        <time>2022-03-17T15:20:30Z</time>
      </trkpt>
      <trkpt lat="44.48014" lon="1.52652">
        <ele>208.26</ele>
        <time>2022-03-17T15:20:45Z</time>
      </trkpt>
      <trkpt lat="44.48017" lon="1.52638">
        <ele>205.86</ele>
        <time>2022-03-17T15:20:59Z</time>
      </trkpt>
      <trkpt lat="44.48023" lon="1.52622">
        <ele>203.94</ele>
        <time>2022-03-17T15:21:14Z</time>
      </trkpt>
      <trkpt lat="44.48028" lon="1.52608">
        <ele>202.01</ele>
        <time>2022-03-17T15:21:30Z</time>
      </trkpt>
      <trkpt lat="44.48032" lon="1.52596">
        <ele>200.57</ele>
        <time>2022-03-17T15:21:42Z</time>
      </trkpt>
      <trkpt lat="44.48033" lon="1.52581">
        <ele>198.65</ele>
        <time>2022-03-17T15:21:55Z</time>
      </trkpt>
      <trkpt lat="44.48037" lon="1.52568">
        <ele>196.73</ele>
        <time>2022-03-17T15:22:08Z</time>
      </trkpt>
      <trkpt lat="44.48038" lon="1.52552">
        <ele>194.8</ele>
        <time>2022-03-17T15:22:22Z</time>
      </trkpt>
      <trkpt lat="44.48041" lon="1.52538">
        <ele>192.88</ele>
        <time>2022-03-17T15:22:37Z</time>
      </trkpt>
      <trkpt lat="44.48041" lon="1.52524">
        <ele>190.96</ele>
        <time>2022-03-17T15:22:50Z</time>
      </trkpt>
      <trkpt lat="44.48042" lon="1.52509">
        <ele>189.52</ele>
        <time>2022-03-17T15:23:04Z</time>
      </trkpt>
      <trkpt lat="44.48043" lon="1.52495">
        <ele>187.59</ele>
        <time>2022-03-17T15:23:16Z</time>
      </trkpt>
      <trkpt lat="44.48048" lon="1.52481">
        <ele>186.63</ele>
        <time>2022-03-17T15:23:30Z</time>
      </trkpt>
      <trkpt lat="44.48052" lon="1.52468">
        <ele>185.19</ele>
        <time>2022-03-17T15:23:43Z</time>
      </trkpt>
      <trkpt lat="44.48052" lon="1.52454">
        <ele>183.27</ele>
        <time>2022-03-17T15:23:54Z</time>
      </trkpt>
      <trkpt lat="44.48053" lon="1.52439">
        <ele>181.83</ele>
        <time>2022-03-17T15:24:06Z</time>
      </trkpt>
      <trkpt lat="44.48053" lon="1.52425">
        <ele>180.38</ele>
        <time>2022-03-17T15:24:17Z</time>
      </trkpt>
      <trkpt lat="44.48051" lon="1.52412">
        <ele>178.94</ele>
        <time>2022-03-17T15:24:28Z</time>
      </trkpt>
      <trkpt lat="44.48052" lon="1.52397">
        <ele>177.5</ele>
        <time>2022-03-17T15:24:40Z</time>
      </trkpt>
      <trkpt lat="44.48055" lon="1.52381">
        <ele>176.06</ele>
        <time>2022-03-17T15:24:52Z</time>
      </trkpt>
      <trkpt lat="44.48055" lon="1.52368">
        <ele>175.1</ele>
        <time>2022-03-17T15:25:04Z</time>
      </trkpt>
      <trkpt lat="44.48055" lon="1.52355">
        <ele>173.17</ele>
        <time>2022-03-17T15:25:17Z</time>
      </trkpt>
      <trkpt lat="44.48058" lon="1.52341">
        <ele>171.73</ele>
        <time>2022-03-17T15:25:28Z</time>
      </trkpt>
      <trkpt lat="44.48062" lon="1.52326">
        <ele>170.29</ele>
        <time>2022-03-17T15:25:41Z</time>
      </trkpt>
      <trkpt lat="44.48062" lon="1.52312">
        <ele>166.93</ele>
        <time>2022-03-17T15:25:58Z</time>
      </trkpt>
      <trkpt lat="44.48063" lon="1.52296">
        <ele>165</ele>
        <time>2022-03-17T15:26:11Z</time>
      </trkpt>
      <trkpt lat="44.48062" lon="1.52282">
        <ele>162.12</ele>
        <time>2022-03-17T15:26:25Z</time>
      </trkpt>
      <trkpt lat="44.48053" lon="1.52273">
        <ele>160.2</ele>
        <time>2022-03-17T15:26:36Z</time>
      </trkpt>
      <trkpt lat="44.48045" lon="1.52266">
        <ele>158.27</ele>
        <time>2022-03-17T15:26:48Z</time>
      </trkpt>
      <trkpt lat="44.48035" lon="1.52257">
        <ele>155.39</ele>
        <time>2022-03-17T15:27:02Z</time>
      </trkpt>
      <trkpt lat="44.48029" lon="1.52243">
        <ele>152.99</ele>
        <time>2022-03-17T15:27:15Z</time>
      </trkpt>
      <trkpt lat="44.48025" lon="1.52231">
        <ele>150.58</ele>
        <time>2022-03-17T15:27:27Z</time>
      </trkpt>
      <trkpt lat="44.48024" lon="1.52217">
        <ele>148.66</ele>
        <time>2022-03-17T15:27:39Z</time>
      </trkpt>
      <trkpt lat="44.48031" lon="1.52205">
        <ele>147.22</ele>
        <time>2022-03-17T15:27:52Z</time>
      </trkpt>
      <trkpt lat="44.48037" lon="1.52197">
        <ele>145.3</ele>
        <time>2022-03-17T15:28:12Z</time>
      </trkpt>
      <trkpt lat="44.48026" lon="1.52196">
        <ele>144.82</ele>
        <time>2022-03-17T15:30:10Z</time>
      </trkpt>
      <trkpt lat="44.48015" lon="1.52193">
        <ele>142.41</ele>
        <time>2022-03-17T15:30:23Z</time>
      </trkpt>
      <trkpt lat="44.48004" lon="1.52189">
        <ele>140.49</ele>
        <time>2022-03-17T15:30:35Z</time>
      </trkpt>
      <trkpt lat="44.47996" lon="1.52183">
        <ele>139.53</ele>
        <time>2022-03-17T15:30:46Z</time>
      </trkpt>
      <trkpt lat="44.47987" lon="1.5217">
        <ele>138.09</ele>
        <time>2022-03-17T15:30:58Z</time>
      </trkpt>
      <trkpt lat="44.47975" lon="1.52164">
        <ele>138.09</ele>
        <time>2022-03-17T15:31:08Z</time>
      </trkpt>
      <trkpt lat="44.47965" lon="1.52167">
        <ele>138.09</ele>
        <time>2022-03-17T15:31:18Z</time>
      </trkpt>
      <trkpt lat="44.47956" lon="1.52172">
        <ele>138.09</ele>
        <time>2022-03-17T15:31:27Z</time>
      </trkpt>
      <trkpt lat="44.47947" lon="1.5218">
        <ele>138.09</ele>
        <time>2022-03-17T15:31:37Z</time>
      </trkpt>
      <trkpt lat="44.47936" lon="1.52186">
        <ele>138.09</ele>
        <time>2022-03-17T15:31:48Z</time>
      </trkpt>
      <trkpt lat="44.47924" lon="1.52193">
        <ele>138.09</ele>
        <time>2022-03-17T15:32:00Z</time>
      </trkpt>
      <trkpt lat="44.47912" lon="1.522">
        <ele>138.09</ele>
        <time>2022-03-17T15:32:11Z</time>
      </trkpt>
      <trkpt lat="44.47901" lon="1.52208">
        <ele>138.09</ele>
        <time>2022-03-17T15:32:22Z</time>
      </trkpt>
      <trkpt lat="44.47889" lon="1.52213">
        <ele>138.09</ele>
        <time>2022-03-17T15:32:33Z</time>
      </trkpt>
      <trkpt lat="44.47876" lon="1.52216">
        <ele>137.61</ele>
        <time>2022-03-17T15:32:44Z</time>
      </trkpt>
      <trkpt lat="44.47864" lon="1.52219">
        <ele>137.61</ele>
        <time>2022-03-17T15:32:55Z</time>
      </trkpt>
      <trkpt lat="44.47849" lon="1.52223">
        <ele>137.13</ele>
        <time>2022-03-17T15:33:07Z</time>
      </trkpt>
      <trkpt lat="44.47832" lon="1.52221">
        <ele>137.13</ele>
        <time>2022-03-17T15:33:22Z</time>
      </trkpt>
      <trkpt lat="44.47815" lon="1.52216">
        <ele>137.13</ele>
        <time>2022-03-17T15:33:37Z</time>
      </trkpt>
      <trkpt lat="44.47805" lon="1.5221">
        <ele>137.13</ele>
        <time>2022-03-17T15:33:48Z</time>
      </trkpt>
      <trkpt lat="44.47796" lon="1.52202">
        <ele>137.13</ele>
        <time>2022-03-17T15:33:59Z</time>
      </trkpt>
      <trkpt lat="44.47785" lon="1.52194">
        <ele>135.2</ele>
        <time>2022-03-17T15:34:11Z</time>
      </trkpt>
      <trkpt lat="44.47775" lon="1.52183">
        <ele>134.72</ele>
        <time>2022-03-17T15:34:22Z</time>
      </trkpt>
      <trkpt lat="44.47765" lon="1.52171">
        <ele>134.24</ele>
        <time>2022-03-17T15:34:33Z</time>
      </trkpt>
      <trkpt lat="44.47756" lon="1.52156">
        <ele>134.24</ele>
        <time>2022-03-17T15:34:43Z</time>
      </trkpt>
      <trkpt lat="44.47747" lon="1.52144">
        <ele>134.24</ele>
        <time>2022-03-17T15:34:52Z</time>
      </trkpt>
      <trkpt lat="44.47736" lon="1.52133">
        <ele>134.24</ele>
        <time>2022-03-17T15:35:01Z</time>
      </trkpt>
      <trkpt lat="44.47725" lon="1.52128">
        <ele>133.28</ele>
        <time>2022-03-17T15:35:11Z</time>
      </trkpt>
      <trkpt lat="44.47713" lon="1.52125">
        <ele>132.8</ele>
        <time>2022-03-17T15:35:21Z</time>
      </trkpt>
      <trkpt lat="44.47701" lon="1.52123">
        <ele>132.32</ele>
        <time>2022-03-17T15:35:32Z</time>
      </trkpt>
      <trkpt lat="44.47688" lon="1.52119">
        <ele>132.32</ele>
        <time>2022-03-17T15:35:43Z</time>
      </trkpt>
      <trkpt lat="44.47674" lon="1.52123">
        <ele>132.32</ele>
        <time>2022-03-17T15:35:54Z</time>
      </trkpt>
      <trkpt lat="44.47659" lon="1.52128">
        <ele>132.32</ele>
        <time>2022-03-17T15:36:05Z</time>
      </trkpt>
      <trkpt lat="44.47646" lon="1.52134">
        <ele>131.84</ele>
        <time>2022-03-17T15:36:16Z</time>
      </trkpt>
      <trkpt lat="44.47634" lon="1.52137">
        <ele>131.84</ele>
        <time>2022-03-17T15:36:27Z</time>
      </trkpt>
      <trkpt lat="44.47621" lon="1.52138">
        <ele>131.84</ele>
        <time>2022-03-17T15:36:38Z</time>
      </trkpt>
      <trkpt lat="44.47604" lon="1.52147">
        <ele>131.84</ele>
        <time>2022-03-17T15:36:48Z</time>
      </trkpt>
      <trkpt lat="44.47593" lon="1.52155">
        <ele>131.84</ele>
        <time>2022-03-17T15:36:58Z</time>
      </trkpt>
      <trkpt lat="44.47582" lon="1.5216">
        <ele>131.84</ele>
        <time>2022-03-17T15:37:08Z</time>
      </trkpt>
      <trkpt lat="44.47568" lon="1.52168">
        <ele>131.36</ele>
        <time>2022-03-17T15:37:43Z</time>
      </trkpt>
      <trkpt lat="44.47558" lon="1.52177">
        <ele>130.88</ele>
        <time>2022-03-17T15:37:53Z</time>
      </trkpt>
      <trkpt lat="44.4755" lon="1.52185">
        <ele>130.4</ele>
        <time>2022-03-17T15:38:03Z</time>
      </trkpt>
      <trkpt lat="44.4754" lon="1.52192">
        <ele>130.4</ele>
        <time>2022-03-17T15:38:14Z</time>
      </trkpt>
      <trkpt lat="44.47529" lon="1.52199">
        <ele>130.4</ele>
        <time>2022-03-17T15:38:24Z</time>
      </trkpt>
      <trkpt lat="44.47517" lon="1.52206">
        <ele>130.4</ele>
        <time>2022-03-17T15:38:33Z</time>
      </trkpt>
      <trkpt lat="44.47506" lon="1.52214">
        <ele>130.4</ele>
        <time>2022-03-17T15:38:42Z</time>
      </trkpt>
      <trkpt lat="44.47495" lon="1.52222">
        <ele>130.4</ele>
        <time>2022-03-17T15:38:53Z</time>
      </trkpt>
      <trkpt lat="44.47483" lon="1.52229">
        <ele>130.4</ele>
        <time>2022-03-17T15:39:05Z</time>
      </trkpt>
      <trkpt lat="44.47473" lon="1.52233">
        <ele>130.4</ele>
        <time>2022-03-17T15:39:19Z</time>
      </trkpt>
      <trkpt lat="44.47461" lon="1.52241">
        <ele>129.92</ele>
        <time>2022-03-17T15:39:30Z</time>
      </trkpt>
      <trkpt lat="44.4745" lon="1.52245">
        <ele>129.92</ele>
        <time>2022-03-17T15:39:40Z</time>
      </trkpt>
      <trkpt lat="44.4744" lon="1.52251">
        <ele>129.92</ele>
        <time>2022-03-17T15:39:49Z</time>
      </trkpt>
      <trkpt lat="44.47429" lon="1.52255">
        <ele>129.43</ele>
        <time>2022-03-17T15:39:59Z</time>
      </trkpt>
      <trkpt lat="44.47417" lon="1.5226">
        <ele>128.95</ele>
        <time>2022-03-17T15:40:09Z</time>
      </trkpt>
      <trkpt lat="44.47405" lon="1.52266">
        <ele>128.95</ele>
        <time>2022-03-17T15:40:21Z</time>
      </trkpt>
      <trkpt lat="44.47393" lon="1.52274">
        <ele>128.47</ele>
        <time>2022-03-17T15:40:32Z</time>
      </trkpt>
      <trkpt lat="44.47383" lon="1.52282">
        <ele>128.47</ele>
        <time>2022-03-17T15:40:43Z</time>
      </trkpt>
      <trkpt lat="44.47372" lon="1.52294">
        <ele>127.51</ele>
        <time>2022-03-17T15:40:54Z</time>
      </trkpt>
      <trkpt lat="44.47356" lon="1.52307">
        <ele>127.51</ele>
        <time>2022-03-17T15:41:05Z</time>
      </trkpt>
      <trkpt lat="44.47341" lon="1.52317">
        <ele>127.03</ele>
        <time>2022-03-17T15:41:17Z</time>
      </trkpt>
      <trkpt lat="44.47325" lon="1.52326">
        <ele>126.55</ele>
        <time>2022-03-17T15:41:30Z</time>
      </trkpt>
      <trkpt lat="44.47314" lon="1.52331">
        <ele>126.07</ele>
        <time>2022-03-17T15:41:42Z</time>
      </trkpt>
      <trkpt lat="44.473" lon="1.5234">
        <ele>125.59</ele>
        <time>2022-03-17T15:41:53Z</time>
      </trkpt>
      <trkpt lat="44.47286" lon="1.52353">
        <ele>125.11</ele>
        <time>2022-03-17T15:42:06Z</time>
      </trkpt>
      <trkpt lat="44.47275" lon="1.52366">
        <ele>125.11</ele>
        <time>2022-03-17T15:42:19Z</time>
      </trkpt>
      <trkpt lat="44.47263" lon="1.52376">
        <ele>124.63</ele>
        <time>2022-03-17T15:42:32Z</time>
      </trkpt>
      <trkpt lat="44.47253" lon="1.52387">
        <ele>124.63</ele>
        <time>2022-03-17T15:42:44Z</time>
      </trkpt>
      <trkpt lat="44.47235" lon="1.52405">
        <ele>123.67</ele>
        <time>2022-03-17T15:42:59Z</time>
      </trkpt>
      <trkpt lat="44.47219" lon="1.52416">
        <ele>123.67</ele>
        <time>2022-03-17T15:43:12Z</time>
      </trkpt>
      <trkpt lat="44.47202" lon="1.52429">
        <ele>123.19</ele>
        <time>2022-03-17T15:43:27Z</time>
      </trkpt>
      <trkpt lat="44.4719" lon="1.52438">
        <ele>123.19</ele>
        <time>2022-03-17T15:43:37Z</time>
      </trkpt>
      <trkpt lat="44.47179" lon="1.52448">
        <ele>122.71</ele>
        <time>2022-03-17T15:43:48Z</time>
      </trkpt>
      <trkpt lat="44.47164" lon="1.52463">
        <ele>122.71</ele>
        <time>2022-03-17T15:44:03Z</time>
      </trkpt>
      <trkpt lat="44.47152" lon="1.5247">
        <ele>122.22</ele>
        <time>2022-03-17T15:44:14Z</time>
      </trkpt>
      <trkpt lat="44.4714" lon="1.52477">
        <ele>121.74</ele>
        <time>2022-03-17T15:44:26Z</time>
      </trkpt>
      <trkpt lat="44.47125" lon="1.52487">
        <ele>121.74</ele>
        <time>2022-03-17T15:44:40Z</time>
      </trkpt>
      <trkpt lat="44.47114" lon="1.52494">
        <ele>121.26</ele>
        <time>2022-03-17T15:44:52Z</time>
      </trkpt>
      <trkpt lat="44.47098" lon="1.52504">
        <ele>120.78</ele>
        <time>2022-03-17T15:45:07Z</time>
      </trkpt>
      <trkpt lat="44.47085" lon="1.52516">
        <ele>119.82</ele>
        <time>2022-03-17T15:45:31Z</time>
      </trkpt>
      <trkpt lat="44.47073" lon="1.52526">
        <ele>119.82</ele>
        <time>2022-03-17T15:45:42Z</time>
      </trkpt>
      <trkpt lat="44.47062" lon="1.52535">
        <ele>119.82</ele>
        <time>2022-03-17T15:45:53Z</time>
      </trkpt>
      <trkpt lat="44.47051" lon="1.52543">
        <ele>119.34</ele>
        <time>2022-03-17T15:46:04Z</time>
      </trkpt>
      <trkpt lat="44.47037" lon="1.52543">
        <ele>118.38</ele>
        <time>2022-03-17T15:46:17Z</time>
      </trkpt>
      <trkpt lat="44.4702" lon="1.52545">
        <ele>117.9</ele>
        <time>2022-03-17T15:46:31Z</time>
      </trkpt>
      <trkpt lat="44.47002" lon="1.52552">
        <ele>117.9</ele>
        <time>2022-03-17T15:46:46Z</time>
      </trkpt>
      <trkpt lat="44.46961" lon="1.5257">
        <ele>116.94</ele>
        <time>2022-03-17T15:47:22Z</time>
      </trkpt>
      <trkpt lat="44.46927" lon="1.52576">
        <ele>115.98</ele>
        <time>2022-03-17T15:47:52Z</time>
      </trkpt>
      <trkpt lat="44.46895" lon="1.52571">
        <ele>115.01</ele>
        <time>2022-03-17T15:48:17Z</time>
      </trkpt>
      <trkpt lat="44.46859" lon="1.52574">
        <ele>114.53</ele>
        <time>2022-03-17T15:48:45Z</time>
      </trkpt>
      <trkpt lat="44.46838" lon="1.52578">
        <ele>113.09</ele>
        <time>2022-03-17T15:48:58Z</time>
      </trkpt>
      <trkpt lat="44.46822" lon="1.52586">
        <ele>113.09</ele>
        <time>2022-03-17T15:49:14Z</time>
      </trkpt>
      <trkpt lat="44.46811" lon="1.52595">
        <ele>113.09</ele>
        <time>2022-03-17T15:49:24Z</time>
      </trkpt>
      <trkpt lat="44.46801" lon="1.52606">
        <ele>114.05</ele>
        <time>2022-03-17T15:49:34Z</time>
      </trkpt>
      <trkpt lat="44.46791" lon="1.52616">
        <ele>114.05</ele>
        <time>2022-03-17T15:49:46Z</time>
      </trkpt>
    </trkseg>
  </trk>
</gpx>